<?xml version="1.0" encoding="UTF-8" standalone="no" ?>
<gpx xmlns="http://www.topografix.com/GPX/1/1" xmlns:xsi="http://www.w3.org/2001/XMLSchema-instance" xsi:schemaLocation="http://www.topografix.com/GPX/1/1 http://www.topografix.com/GPX/1/1/gpx.xsd" version="1.1" creator="VisuGPX - https://www.visugpx.com">
  <metadata>
    <name>Bric dell'Olmo</name>
    <desc><![CDATA[
]]></desc>
  </metadata>
  <trk>
    <name><![CDATA[2020-01-30 12:37:02]]></name>
    <trkseg>
      <trkpt lat="44.19835" lon="7.49594">
        <ele>1378.67</ele>
        <time>2020-01-30T07:38:10Z</time>
      </trkpt>
      <trkpt lat="44.19834" lon="7.496">
        <ele>1380.11</ele>
        <time>2020-01-30T07:38:24Z</time>
      </trkpt>
      <trkpt lat="44.19833" lon="7.49596">
        <ele>1382.99</ele>
        <time>2020-01-30T07:38:47Z</time>
      </trkpt>
      <trkpt lat="44.19835" lon="7.496">
        <ele>1384.92</ele>
        <time>2020-01-30T07:39:11Z</time>
      </trkpt>
      <trkpt lat="44.19836" lon="7.49598">
        <ele>1387.32</ele>
        <time>2020-01-30T07:39:28Z</time>
      </trkpt>
      <trkpt lat="44.19838" lon="7.496">
        <ele>1387.32</ele>
        <time>2020-01-30T07:39:40Z</time>
      </trkpt>
      <trkpt lat="44.19838" lon="7.49595">
        <ele>1387.32</ele>
        <time>2020-01-30T07:39:49Z</time>
      </trkpt>
      <trkpt lat="44.19839" lon="7.49596">
        <ele>1387.8</ele>
        <time>2020-01-30T07:39:58Z</time>
      </trkpt>
      <trkpt lat="44.19841" lon="7.49596">
        <ele>1387.8</ele>
        <time>2020-01-30T07:40:01Z</time>
      </trkpt>
      <trkpt lat="44.19846" lon="7.49591">
        <ele>1387.8</ele>
        <time>2020-01-30T07:40:08Z</time>
      </trkpt>
      <trkpt lat="44.1986" lon="7.49587">
        <ele>1386.84</ele>
        <time>2020-01-30T07:40:24Z</time>
      </trkpt>
      <trkpt lat="44.19859" lon="7.49578">
        <ele>1386.84</ele>
        <time>2020-01-30T07:40:34Z</time>
      </trkpt>
      <trkpt lat="44.19859" lon="7.49577">
        <ele>1387.8</ele>
        <time>2020-01-30T07:40:44Z</time>
      </trkpt>
      <trkpt lat="44.1986" lon="7.49572">
        <ele>1390.2</ele>
        <time>2020-01-30T07:41:07Z</time>
      </trkpt>
      <trkpt lat="44.19862" lon="7.49568">
        <ele>1389.24</ele>
        <time>2020-01-30T07:41:16Z</time>
      </trkpt>
      <trkpt lat="44.19861" lon="7.49569">
        <ele>1385.88</ele>
        <time>2020-01-30T07:41:29Z</time>
      </trkpt>
      <trkpt lat="44.19862" lon="7.49571">
        <ele>1388.28</ele>
        <time>2020-01-30T07:41:42Z</time>
      </trkpt>
      <trkpt lat="44.19862" lon="7.49569">
        <ele>1387.8</ele>
        <time>2020-01-30T07:41:57Z</time>
      </trkpt>
      <trkpt lat="44.19866" lon="7.4957">
        <ele>1386.36</ele>
        <time>2020-01-30T07:42:13Z</time>
      </trkpt>
      <trkpt lat="44.19863" lon="7.4957">
        <ele>1386.36</ele>
        <time>2020-01-30T07:42:30Z</time>
      </trkpt>
      <trkpt lat="44.19864" lon="7.4957">
        <ele>1386.36</ele>
        <time>2020-01-30T07:42:31Z</time>
      </trkpt>
      <trkpt lat="44.19868" lon="7.49563">
        <ele>1385.88</ele>
        <time>2020-01-30T07:42:43Z</time>
      </trkpt>
      <trkpt lat="44.19872" lon="7.49559">
        <ele>1385.4</ele>
        <time>2020-01-30T07:42:52Z</time>
      </trkpt>
      <trkpt lat="44.19875" lon="7.49556">
        <ele>1385.4</ele>
        <time>2020-01-30T07:42:58Z</time>
      </trkpt>
      <trkpt lat="44.19884" lon="7.49543">
        <ele>1383.96</ele>
        <time>2020-01-30T07:43:11Z</time>
      </trkpt>
      <trkpt lat="44.19889" lon="7.49535">
        <ele>1384.92</ele>
        <time>2020-01-30T07:43:22Z</time>
      </trkpt>
      <trkpt lat="44.19889" lon="7.49534">
        <ele>1385.4</ele>
        <time>2020-01-30T07:43:23Z</time>
      </trkpt>
      <trkpt lat="44.19898" lon="7.4952">
        <ele>1385.4</ele>
        <time>2020-01-30T07:43:35Z</time>
      </trkpt>
      <trkpt lat="44.19902" lon="7.49508">
        <ele>1385.4</ele>
        <time>2020-01-30T07:43:47Z</time>
      </trkpt>
      <trkpt lat="44.19906" lon="7.49498">
        <ele>1386.84</ele>
        <time>2020-01-30T07:43:59Z</time>
      </trkpt>
      <trkpt lat="44.19908" lon="7.4949">
        <ele>1387.32</ele>
        <time>2020-01-30T07:44:12Z</time>
      </trkpt>
      <trkpt lat="44.19913" lon="7.49477">
        <ele>1388.28</ele>
        <time>2020-01-30T07:44:24Z</time>
      </trkpt>
      <trkpt lat="44.19914" lon="7.49477">
        <ele>1388.28</ele>
        <time>2020-01-30T07:44:25Z</time>
      </trkpt>
      <trkpt lat="44.19917" lon="7.49473">
        <ele>1388.76</ele>
        <time>2020-01-30T07:44:29Z</time>
      </trkpt>
      <trkpt lat="44.19925" lon="7.49458">
        <ele>1389.24</ele>
        <time>2020-01-30T07:44:43Z</time>
      </trkpt>
      <trkpt lat="44.1993" lon="7.49443">
        <ele>1390.68</ele>
        <time>2020-01-30T07:44:56Z</time>
      </trkpt>
      <trkpt lat="44.19931" lon="7.49441">
        <ele>1390.2</ele>
        <time>2020-01-30T07:44:59Z</time>
      </trkpt>
      <trkpt lat="44.19937" lon="7.49426">
        <ele>1391.17</ele>
        <time>2020-01-30T07:45:13Z</time>
      </trkpt>
      <trkpt lat="44.1994" lon="7.49414">
        <ele>1391.65</ele>
        <time>2020-01-30T07:45:25Z</time>
      </trkpt>
      <trkpt lat="44.19945" lon="7.49402">
        <ele>1392.61</ele>
        <time>2020-01-30T07:45:38Z</time>
      </trkpt>
      <trkpt lat="44.1995" lon="7.49391">
        <ele>1394.05</ele>
        <time>2020-01-30T07:45:52Z</time>
      </trkpt>
      <trkpt lat="44.19951" lon="7.4939">
        <ele>1394.05</ele>
        <time>2020-01-30T07:45:53Z</time>
      </trkpt>
      <trkpt lat="44.19954" lon="7.49383">
        <ele>1394.53</ele>
        <time>2020-01-30T07:46:01Z</time>
      </trkpt>
      <trkpt lat="44.19959" lon="7.49371">
        <ele>1396.45</ele>
        <time>2020-01-30T07:46:15Z</time>
      </trkpt>
      <trkpt lat="44.19964" lon="7.49359">
        <ele>1398.37</ele>
        <time>2020-01-30T07:46:29Z</time>
      </trkpt>
      <trkpt lat="44.19967" lon="7.49354">
        <ele>1399.34</ele>
        <time>2020-01-30T07:46:38Z</time>
      </trkpt>
      <trkpt lat="44.19973" lon="7.49351">
        <ele>1399.82</ele>
        <time>2020-01-30T07:46:48Z</time>
      </trkpt>
      <trkpt lat="44.19979" lon="7.49343">
        <ele>1401.26</ele>
        <time>2020-01-30T07:47:02Z</time>
      </trkpt>
      <trkpt lat="44.19982" lon="7.49338">
        <ele>1401.74</ele>
        <time>2020-01-30T07:47:12Z</time>
      </trkpt>
      <trkpt lat="44.19988" lon="7.49328">
        <ele>1404.62</ele>
        <time>2020-01-30T07:47:27Z</time>
      </trkpt>
      <trkpt lat="44.19988" lon="7.49324">
        <ele>1406.07</ele>
        <time>2020-01-30T07:47:42Z</time>
      </trkpt>
      <trkpt lat="44.19994" lon="7.4932">
        <ele>1408.47</ele>
        <time>2020-01-30T07:47:55Z</time>
      </trkpt>
      <trkpt lat="44.19996" lon="7.49318">
        <ele>1409.43</ele>
        <time>2020-01-30T07:48:01Z</time>
      </trkpt>
      <trkpt lat="44.20002" lon="7.49309">
        <ele>1411.83</ele>
        <time>2020-01-30T07:48:13Z</time>
      </trkpt>
      <trkpt lat="44.20001" lon="7.49302">
        <ele>1413.28</ele>
        <time>2020-01-30T07:48:24Z</time>
      </trkpt>
      <trkpt lat="44.19996" lon="7.49295">
        <ele>1414.72</ele>
        <time>2020-01-30T07:48:37Z</time>
      </trkpt>
      <trkpt lat="44.19988" lon="7.4929">
        <ele>1416.16</ele>
        <time>2020-01-30T07:48:50Z</time>
      </trkpt>
      <trkpt lat="44.19978" lon="7.49284">
        <ele>1420</ele>
        <time>2020-01-30T07:49:05Z</time>
      </trkpt>
      <trkpt lat="44.19971" lon="7.49278">
        <ele>1420.97</ele>
        <time>2020-01-30T07:49:18Z</time>
      </trkpt>
      <trkpt lat="44.19968" lon="7.49273">
        <ele>1420.49</ele>
        <time>2020-01-30T07:49:30Z</time>
      </trkpt>
      <trkpt lat="44.19974" lon="7.49269">
        <ele>1420</ele>
        <time>2020-01-30T07:49:41Z</time>
      </trkpt>
      <trkpt lat="44.19975" lon="7.49269">
        <ele>1420</ele>
        <time>2020-01-30T07:49:44Z</time>
      </trkpt>
      <trkpt lat="44.19977" lon="7.49267">
        <ele>1419.52</ele>
        <time>2020-01-30T07:49:47Z</time>
      </trkpt>
      <trkpt lat="44.19986" lon="7.49264">
        <ele>1421.45</ele>
        <time>2020-01-30T07:50:00Z</time>
      </trkpt>
      <trkpt lat="44.19993" lon="7.49262">
        <ele>1422.89</ele>
        <time>2020-01-30T07:50:10Z</time>
      </trkpt>
      <trkpt lat="44.19996" lon="7.49262">
        <ele>1423.37</ele>
        <time>2020-01-30T07:50:15Z</time>
      </trkpt>
      <trkpt lat="44.20002" lon="7.49254">
        <ele>1423.85</ele>
        <time>2020-01-30T07:50:27Z</time>
      </trkpt>
      <trkpt lat="44.20006" lon="7.49245">
        <ele>1426.73</ele>
        <time>2020-01-30T07:50:42Z</time>
      </trkpt>
      <trkpt lat="44.20011" lon="7.49242">
        <ele>1427.7</ele>
        <time>2020-01-30T07:50:54Z</time>
      </trkpt>
      <trkpt lat="44.20014" lon="7.49238">
        <ele>1428.18</ele>
        <time>2020-01-30T07:51:01Z</time>
      </trkpt>
      <trkpt lat="44.20023" lon="7.49229">
        <ele>1430.58</ele>
        <time>2020-01-30T07:51:15Z</time>
      </trkpt>
      <trkpt lat="44.20028" lon="7.49217">
        <ele>1431.06</ele>
        <time>2020-01-30T07:51:27Z</time>
      </trkpt>
      <trkpt lat="44.20026" lon="7.49203">
        <ele>1431.54</ele>
        <time>2020-01-30T07:51:38Z</time>
      </trkpt>
      <trkpt lat="44.20018" lon="7.49201">
        <ele>1434.42</ele>
        <time>2020-01-30T07:51:51Z</time>
      </trkpt>
      <trkpt lat="44.20013" lon="7.49201">
        <ele>1437.31</ele>
        <time>2020-01-30T07:52:03Z</time>
      </trkpt>
      <trkpt lat="44.20007" lon="7.49195">
        <ele>1437.31</ele>
        <time>2020-01-30T07:52:15Z</time>
      </trkpt>
      <trkpt lat="44.20008" lon="7.49189">
        <ele>1437.31</ele>
        <time>2020-01-30T07:52:27Z</time>
      </trkpt>
      <trkpt lat="44.20002" lon="7.4918">
        <ele>1441.63</ele>
        <time>2020-01-30T07:52:41Z</time>
      </trkpt>
      <trkpt lat="44.20002" lon="7.49174">
        <ele>1445.48</ele>
        <time>2020-01-30T07:52:54Z</time>
      </trkpt>
      <trkpt lat="44.20006" lon="7.49169">
        <ele>1446.44</ele>
        <time>2020-01-30T07:53:07Z</time>
      </trkpt>
      <trkpt lat="44.2001" lon="7.4916">
        <ele>1446.44</ele>
        <time>2020-01-30T07:53:20Z</time>
      </trkpt>
      <trkpt lat="44.20014" lon="7.49154">
        <ele>1447.4</ele>
        <time>2020-01-30T07:53:32Z</time>
      </trkpt>
      <trkpt lat="44.20018" lon="7.49147">
        <ele>1449.81</ele>
        <time>2020-01-30T07:53:43Z</time>
      </trkpt>
      <trkpt lat="44.20023" lon="7.49144">
        <ele>1451.73</ele>
        <time>2020-01-30T07:53:56Z</time>
      </trkpt>
      <trkpt lat="44.20024" lon="7.49142">
        <ele>1452.21</ele>
        <time>2020-01-30T07:53:58Z</time>
      </trkpt>
      <trkpt lat="44.20028" lon="7.49131">
        <ele>1451.25</ele>
        <time>2020-01-30T07:54:08Z</time>
      </trkpt>
      <trkpt lat="44.20031" lon="7.49124">
        <ele>1453.17</ele>
        <time>2020-01-30T07:54:21Z</time>
      </trkpt>
      <trkpt lat="44.20033" lon="7.49118">
        <ele>1452.69</ele>
        <time>2020-01-30T07:54:33Z</time>
      </trkpt>
      <trkpt lat="44.20035" lon="7.49116">
        <ele>1454.13</ele>
        <time>2020-01-30T07:54:37Z</time>
      </trkpt>
      <trkpt lat="44.20038" lon="7.49108">
        <ele>1455.09</ele>
        <time>2020-01-30T07:54:46Z</time>
      </trkpt>
      <trkpt lat="44.20046" lon="7.49099">
        <ele>1456.53</ele>
        <time>2020-01-30T07:54:59Z</time>
      </trkpt>
      <trkpt lat="44.20052" lon="7.49091">
        <ele>1456.53</ele>
        <time>2020-01-30T07:55:11Z</time>
      </trkpt>
      <trkpt lat="44.20059" lon="7.49082">
        <ele>1460.38</ele>
        <time>2020-01-30T07:55:24Z</time>
      </trkpt>
      <trkpt lat="44.20059" lon="7.49079">
        <ele>1459.9</ele>
        <time>2020-01-30T07:55:28Z</time>
      </trkpt>
      <trkpt lat="44.20065" lon="7.49065">
        <ele>1461.82</ele>
        <time>2020-01-30T07:55:42Z</time>
      </trkpt>
      <trkpt lat="44.20068" lon="7.49052">
        <ele>1461.82</ele>
        <time>2020-01-30T07:55:55Z</time>
      </trkpt>
      <trkpt lat="44.20069" lon="7.49042">
        <ele>1463.74</ele>
        <time>2020-01-30T07:56:08Z</time>
      </trkpt>
      <trkpt lat="44.20072" lon="7.49028">
        <ele>1464.71</ele>
        <time>2020-01-30T07:56:21Z</time>
      </trkpt>
      <trkpt lat="44.20074" lon="7.49019">
        <ele>1466.15</ele>
        <time>2020-01-30T07:56:33Z</time>
      </trkpt>
      <trkpt lat="44.20077" lon="7.49006">
        <ele>1466.15</ele>
        <time>2020-01-30T07:56:45Z</time>
      </trkpt>
      <trkpt lat="44.20077" lon="7.48992">
        <ele>1468.07</ele>
        <time>2020-01-30T07:56:59Z</time>
      </trkpt>
      <trkpt lat="44.20076" lon="7.48983">
        <ele>1470.47</ele>
        <time>2020-01-30T07:57:13Z</time>
      </trkpt>
      <trkpt lat="44.20076" lon="7.4897">
        <ele>1471.92</ele>
        <time>2020-01-30T07:57:27Z</time>
      </trkpt>
      <trkpt lat="44.20075" lon="7.4896">
        <ele>1474.32</ele>
        <time>2020-01-30T07:57:40Z</time>
      </trkpt>
      <trkpt lat="44.20073" lon="7.48948">
        <ele>1478.65</ele>
        <time>2020-01-30T07:57:55Z</time>
      </trkpt>
      <trkpt lat="44.20072" lon="7.48936">
        <ele>1481.53</ele>
        <time>2020-01-30T07:58:09Z</time>
      </trkpt>
      <trkpt lat="44.20074" lon="7.48924">
        <ele>1484.41</ele>
        <time>2020-01-30T07:58:24Z</time>
      </trkpt>
      <trkpt lat="44.20076" lon="7.48914">
        <ele>1486.82</ele>
        <time>2020-01-30T07:58:38Z</time>
      </trkpt>
      <trkpt lat="44.20076" lon="7.489">
        <ele>1486.34</ele>
        <time>2020-01-30T07:58:52Z</time>
      </trkpt>
      <trkpt lat="44.20078" lon="7.48898">
        <ele>1491.14</ele>
        <time>2020-01-30T07:59:09Z</time>
      </trkpt>
      <trkpt lat="44.20077" lon="7.48897">
        <ele>1493.06</ele>
        <time>2020-01-30T07:59:32Z</time>
      </trkpt>
      <trkpt lat="44.20075" lon="7.48896">
        <ele>1494.99</ele>
        <time>2020-01-30T07:59:53Z</time>
      </trkpt>
      <trkpt lat="44.20072" lon="7.48893">
        <ele>1499.79</ele>
        <time>2020-01-30T08:00:17Z</time>
      </trkpt>
      <trkpt lat="44.20068" lon="7.48885">
        <ele>1505.56</ele>
        <time>2020-01-30T08:00:38Z</time>
      </trkpt>
      <trkpt lat="44.20067" lon="7.48887">
        <ele>1506.52</ele>
        <time>2020-01-30T08:01:01Z</time>
      </trkpt>
      <trkpt lat="44.20074" lon="7.48895">
        <ele>1499.31</ele>
        <time>2020-01-30T08:01:15Z</time>
      </trkpt>
      <trkpt lat="44.20074" lon="7.48893">
        <ele>1494.51</ele>
        <time>2020-01-30T08:01:29Z</time>
      </trkpt>
      <trkpt lat="44.20076" lon="7.48888">
        <ele>1489.22</ele>
        <time>2020-01-30T08:01:43Z</time>
      </trkpt>
      <trkpt lat="44.20075" lon="7.48877">
        <ele>1488.26</ele>
        <time>2020-01-30T08:01:55Z</time>
      </trkpt>
      <trkpt lat="44.20075" lon="7.48863">
        <ele>1488.74</ele>
        <time>2020-01-30T08:02:10Z</time>
      </trkpt>
      <trkpt lat="44.2008" lon="7.4885">
        <ele>1490.66</ele>
        <time>2020-01-30T08:02:24Z</time>
      </trkpt>
      <trkpt lat="44.20081" lon="7.48844">
        <ele>1492.1</ele>
        <time>2020-01-30T08:02:30Z</time>
      </trkpt>
      <trkpt lat="44.20086" lon="7.48835">
        <ele>1493.55</ele>
        <time>2020-01-30T08:02:43Z</time>
      </trkpt>
      <trkpt lat="44.2009" lon="7.48825">
        <ele>1494.03</ele>
        <time>2020-01-30T08:02:55Z</time>
      </trkpt>
      <trkpt lat="44.20092" lon="7.48818">
        <ele>1496.91</ele>
        <time>2020-01-30T08:03:06Z</time>
      </trkpt>
      <trkpt lat="44.20095" lon="7.48811">
        <ele>1500.76</ele>
        <time>2020-01-30T08:03:21Z</time>
      </trkpt>
      <trkpt lat="44.20096" lon="7.48805">
        <ele>1502.2</ele>
        <time>2020-01-30T08:03:36Z</time>
      </trkpt>
      <trkpt lat="44.20098" lon="7.48796">
        <ele>1502.2</ele>
        <time>2020-01-30T08:03:49Z</time>
      </trkpt>
      <trkpt lat="44.20096" lon="7.4879">
        <ele>1503.64</ele>
        <time>2020-01-30T08:04:01Z</time>
      </trkpt>
      <trkpt lat="44.20092" lon="7.48782">
        <ele>1505.56</ele>
        <time>2020-01-30T08:04:22Z</time>
      </trkpt>
      <trkpt lat="44.2009" lon="7.48776">
        <ele>1508.45</ele>
        <time>2020-01-30T08:04:35Z</time>
      </trkpt>
      <trkpt lat="44.20094" lon="7.48769">
        <ele>1510.85</ele>
        <time>2020-01-30T08:04:48Z</time>
      </trkpt>
      <trkpt lat="44.20097" lon="7.48761">
        <ele>1510.85</ele>
        <time>2020-01-30T08:04:59Z</time>
      </trkpt>
      <trkpt lat="44.20101" lon="7.48758">
        <ele>1514.69</ele>
        <time>2020-01-30T08:05:17Z</time>
      </trkpt>
      <trkpt lat="44.201" lon="7.48757">
        <ele>1518.54</ele>
        <time>2020-01-30T08:05:27Z</time>
      </trkpt>
      <trkpt lat="44.20104" lon="7.48751">
        <ele>1519.5</ele>
        <time>2020-01-30T08:05:33Z</time>
      </trkpt>
      <trkpt lat="44.20109" lon="7.48742">
        <ele>1520.94</ele>
        <time>2020-01-30T08:05:45Z</time>
      </trkpt>
      <trkpt lat="44.20111" lon="7.48735">
        <ele>1521.9</ele>
        <time>2020-01-30T08:06:00Z</time>
      </trkpt>
      <trkpt lat="44.20116" lon="7.48728">
        <ele>1523.35</ele>
        <time>2020-01-30T08:06:13Z</time>
      </trkpt>
      <trkpt lat="44.20116" lon="7.48715">
        <ele>1525.75</ele>
        <time>2020-01-30T08:06:30Z</time>
      </trkpt>
      <trkpt lat="44.20115" lon="7.48702">
        <ele>1527.67</ele>
        <time>2020-01-30T08:06:46Z</time>
      </trkpt>
      <trkpt lat="44.20114" lon="7.48692">
        <ele>1529.11</ele>
        <time>2020-01-30T08:06:57Z</time>
      </trkpt>
      <trkpt lat="44.20115" lon="7.48681">
        <ele>1532</ele>
        <time>2020-01-30T08:07:12Z</time>
      </trkpt>
      <trkpt lat="44.20112" lon="7.48674">
        <ele>1535.36</ele>
        <time>2020-01-30T08:07:30Z</time>
      </trkpt>
      <trkpt lat="44.20105" lon="7.48665">
        <ele>1540.17</ele>
        <time>2020-01-30T08:07:45Z</time>
      </trkpt>
      <trkpt lat="44.20104" lon="7.48658">
        <ele>1542.57</ele>
        <time>2020-01-30T08:07:58Z</time>
      </trkpt>
      <trkpt lat="44.20097" lon="7.4865">
        <ele>1542.09</ele>
        <time>2020-01-30T08:08:13Z</time>
      </trkpt>
      <trkpt lat="44.2009" lon="7.48645">
        <ele>1535.84</ele>
        <time>2020-01-30T08:08:29Z</time>
      </trkpt>
      <trkpt lat="44.20095" lon="7.48645">
        <ele>1544.5</ele>
        <time>2020-01-30T08:08:53Z</time>
      </trkpt>
      <trkpt lat="44.20096" lon="7.48635">
        <ele>1544.5</ele>
        <time>2020-01-30T08:09:05Z</time>
      </trkpt>
      <trkpt lat="44.20097" lon="7.48625">
        <ele>1544.01</ele>
        <time>2020-01-30T08:09:17Z</time>
      </trkpt>
      <trkpt lat="44.20097" lon="7.48617">
        <ele>1548.82</ele>
        <time>2020-01-30T08:09:34Z</time>
      </trkpt>
      <trkpt lat="44.20096" lon="7.48611">
        <ele>1546.42</ele>
        <time>2020-01-30T08:09:49Z</time>
      </trkpt>
      <trkpt lat="44.20093" lon="7.48605">
        <ele>1546.42</ele>
        <time>2020-01-30T08:10:00Z</time>
      </trkpt>
      <trkpt lat="44.2009" lon="7.486">
        <ele>1548.82</ele>
        <time>2020-01-30T08:10:13Z</time>
      </trkpt>
      <trkpt lat="44.20087" lon="7.4859">
        <ele>1548.82</ele>
        <time>2020-01-30T08:10:26Z</time>
      </trkpt>
      <trkpt lat="44.20085" lon="7.48577">
        <ele>1549.3</ele>
        <time>2020-01-30T08:10:40Z</time>
      </trkpt>
      <trkpt lat="44.20083" lon="7.48563">
        <ele>1550.26</ele>
        <time>2020-01-30T08:10:54Z</time>
      </trkpt>
      <trkpt lat="44.20083" lon="7.48561">
        <ele>1550.26</ele>
        <time>2020-01-30T08:10:55Z</time>
      </trkpt>
      <trkpt lat="44.2008" lon="7.48548">
        <ele>1551.71</ele>
        <time>2020-01-30T08:11:09Z</time>
      </trkpt>
      <trkpt lat="44.20074" lon="7.48534">
        <ele>1553.63</ele>
        <time>2020-01-30T08:11:26Z</time>
      </trkpt>
      <trkpt lat="44.20077" lon="7.48537">
        <ele>1552.67</ele>
        <time>2020-01-30T08:11:35Z</time>
      </trkpt>
      <trkpt lat="44.2008" lon="7.48529">
        <ele>1554.59</ele>
        <time>2020-01-30T08:11:50Z</time>
      </trkpt>
      <trkpt lat="44.2009" lon="7.48527">
        <ele>1553.63</ele>
        <time>2020-01-30T08:12:03Z</time>
      </trkpt>
      <trkpt lat="44.20095" lon="7.48532">
        <ele>1553.15</ele>
        <time>2020-01-30T08:12:14Z</time>
      </trkpt>
      <trkpt lat="44.20094" lon="7.48528">
        <ele>1557.47</ele>
        <time>2020-01-30T08:12:29Z</time>
      </trkpt>
      <trkpt lat="44.20099" lon="7.48525">
        <ele>1562.28</ele>
        <time>2020-01-30T08:12:42Z</time>
      </trkpt>
      <trkpt lat="44.20103" lon="7.48523">
        <ele>1564.2</ele>
        <time>2020-01-30T08:13:12Z</time>
      </trkpt>
      <trkpt lat="44.20106" lon="7.48514">
        <ele>1565.16</ele>
        <time>2020-01-30T08:13:25Z</time>
      </trkpt>
      <trkpt lat="44.20107" lon="7.48507">
        <ele>1565.64</ele>
        <time>2020-01-30T08:13:38Z</time>
      </trkpt>
      <trkpt lat="44.20112" lon="7.48495">
        <ele>1567.09</ele>
        <time>2020-01-30T08:13:50Z</time>
      </trkpt>
      <trkpt lat="44.20106" lon="7.48487">
        <ele>1570.45</ele>
        <time>2020-01-30T08:14:07Z</time>
      </trkpt>
      <trkpt lat="44.20108" lon="7.48483">
        <ele>1573.33</ele>
        <time>2020-01-30T08:14:19Z</time>
      </trkpt>
      <trkpt lat="44.20114" lon="7.48473">
        <ele>1576.22</ele>
        <time>2020-01-30T08:14:29Z</time>
      </trkpt>
      <trkpt lat="44.20117" lon="7.4847">
        <ele>1575.26</ele>
        <time>2020-01-30T08:14:39Z</time>
      </trkpt>
      <trkpt lat="44.20122" lon="7.48465">
        <ele>1576.7</ele>
        <time>2020-01-30T08:14:52Z</time>
      </trkpt>
      <trkpt lat="44.20124" lon="7.48462">
        <ele>1580.54</ele>
        <time>2020-01-30T08:15:08Z</time>
      </trkpt>
      <trkpt lat="44.20126" lon="7.48454">
        <ele>1583.43</ele>
        <time>2020-01-30T08:15:18Z</time>
      </trkpt>
      <trkpt lat="44.20131" lon="7.48443">
        <ele>1585.83</ele>
        <time>2020-01-30T08:15:37Z</time>
      </trkpt>
      <trkpt lat="44.20131" lon="7.48437">
        <ele>1583.91</ele>
        <time>2020-01-30T08:16:02Z</time>
      </trkpt>
      <trkpt lat="44.20128" lon="7.48427">
        <ele>1589.2</ele>
        <time>2020-01-30T08:16:18Z</time>
      </trkpt>
      <trkpt lat="44.20127" lon="7.48422">
        <ele>1588.72</ele>
        <time>2020-01-30T08:16:29Z</time>
      </trkpt>
      <trkpt lat="44.2013" lon="7.48415">
        <ele>1590.64</ele>
        <time>2020-01-30T08:16:42Z</time>
      </trkpt>
      <trkpt lat="44.20134" lon="7.48412">
        <ele>1592.56</ele>
        <time>2020-01-30T08:16:58Z</time>
      </trkpt>
      <trkpt lat="44.20141" lon="7.48404">
        <ele>1595.45</ele>
        <time>2020-01-30T08:17:11Z</time>
      </trkpt>
      <trkpt lat="44.20145" lon="7.48402">
        <ele>1596.41</ele>
        <time>2020-01-30T08:17:23Z</time>
      </trkpt>
      <trkpt lat="44.20149" lon="7.484">
        <ele>1598.81</ele>
        <time>2020-01-30T08:17:35Z</time>
      </trkpt>
      <trkpt lat="44.20149" lon="7.48397">
        <ele>1601.21</ele>
        <time>2020-01-30T08:17:48Z</time>
      </trkpt>
      <trkpt lat="44.20154" lon="7.48391">
        <ele>1602.17</ele>
        <time>2020-01-30T08:18:01Z</time>
      </trkpt>
      <trkpt lat="44.20158" lon="7.48385">
        <ele>1604.1</ele>
        <time>2020-01-30T08:18:14Z</time>
      </trkpt>
      <trkpt lat="44.20164" lon="7.48382">
        <ele>1606.98</ele>
        <time>2020-01-30T08:18:33Z</time>
      </trkpt>
      <trkpt lat="44.20165" lon="7.48381">
        <ele>1607.46</ele>
        <time>2020-01-30T08:18:36Z</time>
      </trkpt>
      <trkpt lat="44.20172" lon="7.48373">
        <ele>1609.38</ele>
        <time>2020-01-30T08:18:50Z</time>
      </trkpt>
      <trkpt lat="44.20179" lon="7.48369">
        <ele>1608.9</ele>
        <time>2020-01-30T08:19:00Z</time>
      </trkpt>
      <trkpt lat="44.20186" lon="7.48365">
        <ele>1610.83</ele>
        <time>2020-01-30T08:19:10Z</time>
      </trkpt>
      <trkpt lat="44.20195" lon="7.48359">
        <ele>1614.19</ele>
        <time>2020-01-30T08:19:25Z</time>
      </trkpt>
      <trkpt lat="44.20199" lon="7.48357">
        <ele>1614.67</ele>
        <time>2020-01-30T08:19:38Z</time>
      </trkpt>
      <trkpt lat="44.20202" lon="7.48354">
        <ele>1615.15</ele>
        <time>2020-01-30T08:19:49Z</time>
      </trkpt>
      <trkpt lat="44.20204" lon="7.4835">
        <ele>1619.96</ele>
        <time>2020-01-30T08:20:03Z</time>
      </trkpt>
      <trkpt lat="44.20214" lon="7.48346">
        <ele>1624.77</ele>
        <time>2020-01-30T08:20:17Z</time>
      </trkpt>
      <trkpt lat="44.20215" lon="7.4834">
        <ele>1629.09</ele>
        <time>2020-01-30T08:20:33Z</time>
      </trkpt>
      <trkpt lat="44.20215" lon="7.48332">
        <ele>1627.17</ele>
        <time>2020-01-30T08:20:47Z</time>
      </trkpt>
      <trkpt lat="44.20219" lon="7.48322">
        <ele>1628.61</ele>
        <time>2020-01-30T08:20:59Z</time>
      </trkpt>
      <trkpt lat="44.20221" lon="7.48319">
        <ele>1630.05</ele>
        <time>2020-01-30T08:21:07Z</time>
      </trkpt>
      <trkpt lat="44.20224" lon="7.48311">
        <ele>1631.49</ele>
        <time>2020-01-30T08:21:17Z</time>
      </trkpt>
      <trkpt lat="44.20228" lon="7.48304">
        <ele>1632.46</ele>
        <time>2020-01-30T08:21:31Z</time>
      </trkpt>
      <trkpt lat="44.20235" lon="7.48301">
        <ele>1633.42</ele>
        <time>2020-01-30T08:21:42Z</time>
      </trkpt>
      <trkpt lat="44.20242" lon="7.48303">
        <ele>1635.34</ele>
        <time>2020-01-30T08:21:56Z</time>
      </trkpt>
      <trkpt lat="44.20249" lon="7.48304">
        <ele>1640.15</ele>
        <time>2020-01-30T08:22:09Z</time>
      </trkpt>
      <trkpt lat="44.20255" lon="7.48306">
        <ele>1643.03</ele>
        <time>2020-01-30T08:22:23Z</time>
      </trkpt>
      <trkpt lat="44.2026" lon="7.48311">
        <ele>1643.51</ele>
        <time>2020-01-30T08:22:40Z</time>
      </trkpt>
      <trkpt lat="44.20266" lon="7.48315">
        <ele>1644.95</ele>
        <time>2020-01-30T08:22:53Z</time>
      </trkpt>
      <trkpt lat="44.20272" lon="7.48318">
        <ele>1648.32</ele>
        <time>2020-01-30T08:23:07Z</time>
      </trkpt>
      <trkpt lat="44.20274" lon="7.48321">
        <ele>1649.76</ele>
        <time>2020-01-30T08:23:21Z</time>
      </trkpt>
      <trkpt lat="44.20278" lon="7.48324">
        <ele>1651.68</ele>
        <time>2020-01-30T08:24:00Z</time>
      </trkpt>
      <trkpt lat="44.20282" lon="7.48323">
        <ele>1653.6</ele>
        <time>2020-01-30T08:24:21Z</time>
      </trkpt>
      <trkpt lat="44.2028" lon="7.48322">
        <ele>1653.12</ele>
        <time>2020-01-30T08:24:38Z</time>
      </trkpt>
      <trkpt lat="44.20282" lon="7.48324">
        <ele>1656.97</ele>
        <time>2020-01-30T08:25:11Z</time>
      </trkpt>
      <trkpt lat="44.20285" lon="7.4832">
        <ele>1655.05</ele>
        <time>2020-01-30T08:25:27Z</time>
      </trkpt>
      <trkpt lat="44.20284" lon="7.4832">
        <ele>1656.49</ele>
        <time>2020-01-30T08:25:49Z</time>
      </trkpt>
      <trkpt lat="44.20287" lon="7.48322">
        <ele>1657.93</ele>
        <time>2020-01-30T08:26:02Z</time>
      </trkpt>
      <trkpt lat="44.20286" lon="7.48322">
        <ele>1659.85</ele>
        <time>2020-01-30T08:26:13Z</time>
      </trkpt>
      <trkpt lat="44.20287" lon="7.48322">
        <ele>1658.89</ele>
        <time>2020-01-30T08:26:23Z</time>
      </trkpt>
      <trkpt lat="44.20293" lon="7.48318">
        <ele>1659.85</ele>
        <time>2020-01-30T08:26:39Z</time>
      </trkpt>
      <trkpt lat="44.20301" lon="7.48314">
        <ele>1658.89</ele>
        <time>2020-01-30T08:26:55Z</time>
      </trkpt>
      <trkpt lat="44.20305" lon="7.48313">
        <ele>1659.37</ele>
        <time>2020-01-30T08:27:07Z</time>
      </trkpt>
      <trkpt lat="44.20304" lon="7.4831">
        <ele>1661.3</ele>
        <time>2020-01-30T08:27:18Z</time>
      </trkpt>
      <trkpt lat="44.20312" lon="7.48313">
        <ele>1663.22</ele>
        <time>2020-01-30T08:27:32Z</time>
      </trkpt>
      <trkpt lat="44.20315" lon="7.48322">
        <ele>1664.18</ele>
        <time>2020-01-30T08:27:46Z</time>
      </trkpt>
      <trkpt lat="44.2032" lon="7.48324">
        <ele>1666.1</ele>
        <time>2020-01-30T08:27:58Z</time>
      </trkpt>
      <trkpt lat="44.20322" lon="7.48329">
        <ele>1668.51</ele>
        <time>2020-01-30T08:28:13Z</time>
      </trkpt>
      <trkpt lat="44.20325" lon="7.48332">
        <ele>1668.99</ele>
        <time>2020-01-30T08:28:29Z</time>
      </trkpt>
      <trkpt lat="44.2033" lon="7.48339">
        <ele>1670.43</ele>
        <time>2020-01-30T08:28:48Z</time>
      </trkpt>
      <trkpt lat="44.20331" lon="7.48332">
        <ele>1672.83</ele>
        <time>2020-01-30T08:29:02Z</time>
      </trkpt>
      <trkpt lat="44.2034" lon="7.48332">
        <ele>1674.75</ele>
        <time>2020-01-30T08:29:16Z</time>
      </trkpt>
      <trkpt lat="44.20346" lon="7.48336">
        <ele>1677.16</ele>
        <time>2020-01-30T08:29:30Z</time>
      </trkpt>
      <trkpt lat="44.20356" lon="7.48336">
        <ele>1679.08</ele>
        <time>2020-01-30T08:29:44Z</time>
      </trkpt>
      <trkpt lat="44.20361" lon="7.48337">
        <ele>1679.56</ele>
        <time>2020-01-30T08:30:02Z</time>
      </trkpt>
      <trkpt lat="44.20365" lon="7.48345">
        <ele>1682.93</ele>
        <time>2020-01-30T08:30:14Z</time>
      </trkpt>
      <trkpt lat="44.2037" lon="7.48349">
        <ele>1685.33</ele>
        <time>2020-01-30T08:30:29Z</time>
      </trkpt>
      <trkpt lat="44.20374" lon="7.48352">
        <ele>1686.77</ele>
        <time>2020-01-30T08:30:42Z</time>
      </trkpt>
      <trkpt lat="44.20381" lon="7.48355">
        <ele>1688.69</ele>
        <time>2020-01-30T08:30:55Z</time>
      </trkpt>
      <trkpt lat="44.20386" lon="7.48357">
        <ele>1690.62</ele>
        <time>2020-01-30T08:31:06Z</time>
      </trkpt>
      <trkpt lat="44.20392" lon="7.48364">
        <ele>1691.58</ele>
        <time>2020-01-30T08:31:24Z</time>
      </trkpt>
      <trkpt lat="44.20395" lon="7.48369">
        <ele>1693.5</ele>
        <time>2020-01-30T08:31:38Z</time>
      </trkpt>
      <trkpt lat="44.20394" lon="7.48361">
        <ele>1694.46</ele>
        <time>2020-01-30T08:31:50Z</time>
      </trkpt>
      <trkpt lat="44.20399" lon="7.48352">
        <ele>1695.9</ele>
        <time>2020-01-30T08:32:07Z</time>
      </trkpt>
      <trkpt lat="44.204" lon="7.48344">
        <ele>1699.75</ele>
        <time>2020-01-30T08:32:21Z</time>
      </trkpt>
      <trkpt lat="44.20399" lon="7.48341">
        <ele>1703.11</ele>
        <time>2020-01-30T08:32:33Z</time>
      </trkpt>
      <trkpt lat="44.20402" lon="7.48331">
        <ele>1704.07</ele>
        <time>2020-01-30T08:32:45Z</time>
      </trkpt>
      <trkpt lat="44.20406" lon="7.48325">
        <ele>1705.04</ele>
        <time>2020-01-30T08:32:59Z</time>
      </trkpt>
      <trkpt lat="44.20407" lon="7.4832">
        <ele>1705.04</ele>
        <time>2020-01-30T08:33:23Z</time>
      </trkpt>
      <trkpt lat="44.20407" lon="7.48316">
        <ele>1708.4</ele>
        <time>2020-01-30T08:33:38Z</time>
      </trkpt>
      <trkpt lat="44.20416" lon="7.48312">
        <ele>1710.32</ele>
        <time>2020-01-30T08:33:48Z</time>
      </trkpt>
      <trkpt lat="44.20423" lon="7.48315">
        <ele>1715.61</ele>
        <time>2020-01-30T08:34:04Z</time>
      </trkpt>
      <trkpt lat="44.20428" lon="7.48321">
        <ele>1717.05</ele>
        <time>2020-01-30T08:34:18Z</time>
      </trkpt>
      <trkpt lat="44.20432" lon="7.48326">
        <ele>1719.94</ele>
        <time>2020-01-30T08:34:34Z</time>
      </trkpt>
      <trkpt lat="44.20435" lon="7.48332">
        <ele>1721.38</ele>
        <time>2020-01-30T08:34:46Z</time>
      </trkpt>
      <trkpt lat="44.20439" lon="7.48334">
        <ele>1723.3</ele>
        <time>2020-01-30T08:34:57Z</time>
      </trkpt>
      <trkpt lat="44.20443" lon="7.48337">
        <ele>1724.74</ele>
        <time>2020-01-30T08:35:11Z</time>
      </trkpt>
      <trkpt lat="44.20441" lon="7.48338">
        <ele>1724.74</ele>
        <time>2020-01-30T08:35:25Z</time>
      </trkpt>
      <trkpt lat="44.20444" lon="7.48334">
        <ele>1724.26</ele>
        <time>2020-01-30T08:35:57Z</time>
      </trkpt>
      <trkpt lat="44.20447" lon="7.48325">
        <ele>1724.74</ele>
        <time>2020-01-30T08:36:11Z</time>
      </trkpt>
      <trkpt lat="44.20449" lon="7.48319">
        <ele>1726.67</ele>
        <time>2020-01-30T08:36:23Z</time>
      </trkpt>
      <trkpt lat="44.20451" lon="7.48312">
        <ele>1728.59</ele>
        <time>2020-01-30T08:36:39Z</time>
      </trkpt>
      <trkpt lat="44.20454" lon="7.48305">
        <ele>1731.47</ele>
        <time>2020-01-30T08:36:52Z</time>
      </trkpt>
      <trkpt lat="44.20457" lon="7.48297">
        <ele>1733.39</ele>
        <time>2020-01-30T08:37:05Z</time>
      </trkpt>
      <trkpt lat="44.2046" lon="7.4829">
        <ele>1734.36</ele>
        <time>2020-01-30T08:37:21Z</time>
      </trkpt>
      <trkpt lat="44.20462" lon="7.48283">
        <ele>1736.28</ele>
        <time>2020-01-30T08:37:34Z</time>
      </trkpt>
      <trkpt lat="44.20466" lon="7.48276">
        <ele>1737.72</ele>
        <time>2020-01-30T08:37:48Z</time>
      </trkpt>
      <trkpt lat="44.2047" lon="7.48277">
        <ele>1740.6</ele>
        <time>2020-01-30T08:38:02Z</time>
      </trkpt>
      <trkpt lat="44.20472" lon="7.48276">
        <ele>1742.53</ele>
        <time>2020-01-30T08:38:14Z</time>
      </trkpt>
      <trkpt lat="44.20477" lon="7.48269">
        <ele>1744.45</ele>
        <time>2020-01-30T08:38:24Z</time>
      </trkpt>
      <trkpt lat="44.20479" lon="7.4827">
        <ele>1744.93</ele>
        <time>2020-01-30T08:38:45Z</time>
      </trkpt>
      <trkpt lat="44.20482" lon="7.48265">
        <ele>1747.81</ele>
        <time>2020-01-30T08:38:57Z</time>
      </trkpt>
      <trkpt lat="44.20488" lon="7.48268">
        <ele>1749.74</ele>
        <time>2020-01-30T08:39:11Z</time>
      </trkpt>
      <trkpt lat="44.2049" lon="7.48273">
        <ele>1751.66</ele>
        <time>2020-01-30T08:39:29Z</time>
      </trkpt>
      <trkpt lat="44.20493" lon="7.48278">
        <ele>1751.66</ele>
        <time>2020-01-30T08:39:41Z</time>
      </trkpt>
      <trkpt lat="44.20496" lon="7.48284">
        <ele>1755.02</ele>
        <time>2020-01-30T08:40:03Z</time>
      </trkpt>
      <trkpt lat="44.20497" lon="7.48293">
        <ele>1756.95</ele>
        <time>2020-01-30T08:40:14Z</time>
      </trkpt>
      <trkpt lat="44.205" lon="7.48295">
        <ele>1758.87</ele>
        <time>2020-01-30T08:40:26Z</time>
      </trkpt>
      <trkpt lat="44.205" lon="7.48293">
        <ele>1757.91</ele>
        <time>2020-01-30T08:40:48Z</time>
      </trkpt>
      <trkpt lat="44.20501" lon="7.48295">
        <ele>1757.91</ele>
        <time>2020-01-30T08:41:12Z</time>
      </trkpt>
      <trkpt lat="44.20502" lon="7.48298">
        <ele>1754.54</ele>
        <time>2020-01-30T08:41:28Z</time>
      </trkpt>
      <trkpt lat="44.20502" lon="7.48297">
        <ele>1755.5</ele>
        <time>2020-01-30T08:41:48Z</time>
      </trkpt>
      <trkpt lat="44.20502" lon="7.48296">
        <ele>1755.02</ele>
        <time>2020-01-30T08:41:58Z</time>
      </trkpt>
      <trkpt lat="44.20501" lon="7.48294">
        <ele>1757.43</ele>
        <time>2020-01-30T08:42:16Z</time>
      </trkpt>
      <trkpt lat="44.20504" lon="7.48295">
        <ele>1756.95</ele>
        <time>2020-01-30T08:42:42Z</time>
      </trkpt>
      <trkpt lat="44.20502" lon="7.48295">
        <ele>1757.91</ele>
        <time>2020-01-30T08:42:56Z</time>
      </trkpt>
      <trkpt lat="44.20501" lon="7.48298">
        <ele>1757.91</ele>
        <time>2020-01-30T08:43:17Z</time>
      </trkpt>
      <trkpt lat="44.20502" lon="7.48295">
        <ele>1760.31</ele>
        <time>2020-01-30T08:43:38Z</time>
      </trkpt>
      <trkpt lat="44.20505" lon="7.48295">
        <ele>1760.79</ele>
        <time>2020-01-30T08:44:07Z</time>
      </trkpt>
      <trkpt lat="44.20503" lon="7.48293">
        <ele>1758.39</ele>
        <time>2020-01-30T08:44:28Z</time>
      </trkpt>
      <trkpt lat="44.20505" lon="7.483">
        <ele>1760.31</ele>
        <time>2020-01-30T08:44:41Z</time>
      </trkpt>
      <trkpt lat="44.20509" lon="7.48306">
        <ele>1761.27</ele>
        <time>2020-01-30T08:44:51Z</time>
      </trkpt>
      <trkpt lat="44.20508" lon="7.48308">
        <ele>1763.68</ele>
        <time>2020-01-30T08:45:03Z</time>
      </trkpt>
      <trkpt lat="44.2051" lon="7.483">
        <ele>1766.56</ele>
        <time>2020-01-30T08:45:14Z</time>
      </trkpt>
      <trkpt lat="44.20511" lon="7.48293">
        <ele>1767.52</ele>
        <time>2020-01-30T08:45:27Z</time>
      </trkpt>
      <trkpt lat="44.20515" lon="7.48285">
        <ele>1768.96</ele>
        <time>2020-01-30T08:45:42Z</time>
      </trkpt>
      <trkpt lat="44.20519" lon="7.48277">
        <ele>1769.44</ele>
        <time>2020-01-30T08:45:53Z</time>
      </trkpt>
      <trkpt lat="44.20525" lon="7.48266">
        <ele>1771.37</ele>
        <time>2020-01-30T08:46:06Z</time>
      </trkpt>
      <trkpt lat="44.20528" lon="7.4826">
        <ele>1773.77</ele>
        <time>2020-01-30T08:46:23Z</time>
      </trkpt>
      <trkpt lat="44.20531" lon="7.48252">
        <ele>1774.25</ele>
        <time>2020-01-30T08:46:37Z</time>
      </trkpt>
      <trkpt lat="44.20534" lon="7.48243">
        <ele>1778.1</ele>
        <time>2020-01-30T08:46:50Z</time>
      </trkpt>
      <trkpt lat="44.20536" lon="7.48238">
        <ele>1780.5</ele>
        <time>2020-01-30T08:47:03Z</time>
      </trkpt>
      <trkpt lat="44.2054" lon="7.4823">
        <ele>1782.42</ele>
        <time>2020-01-30T08:47:16Z</time>
      </trkpt>
      <trkpt lat="44.20543" lon="7.48227">
        <ele>1784.82</ele>
        <time>2020-01-30T08:47:27Z</time>
      </trkpt>
      <trkpt lat="44.20545" lon="7.4823">
        <ele>1786.27</ele>
        <time>2020-01-30T08:47:40Z</time>
      </trkpt>
      <trkpt lat="44.20552" lon="7.48235">
        <ele>1786.27</ele>
        <time>2020-01-30T08:48:00Z</time>
      </trkpt>
      <trkpt lat="44.20556" lon="7.48242">
        <ele>1787.71</ele>
        <time>2020-01-30T08:48:13Z</time>
      </trkpt>
      <trkpt lat="44.20558" lon="7.48253">
        <ele>1789.15</ele>
        <time>2020-01-30T08:48:31Z</time>
      </trkpt>
      <trkpt lat="44.20561" lon="7.4826">
        <ele>1790.11</ele>
        <time>2020-01-30T08:48:43Z</time>
      </trkpt>
      <trkpt lat="44.20564" lon="7.48268">
        <ele>1792.52</ele>
        <time>2020-01-30T08:49:00Z</time>
      </trkpt>
      <trkpt lat="44.20568" lon="7.48274">
        <ele>1794.44</ele>
        <time>2020-01-30T08:49:10Z</time>
      </trkpt>
      <trkpt lat="44.20571" lon="7.48282">
        <ele>1794.44</ele>
        <time>2020-01-30T08:49:26Z</time>
      </trkpt>
      <trkpt lat="44.20578" lon="7.48286">
        <ele>1798.28</ele>
        <time>2020-01-30T08:49:41Z</time>
      </trkpt>
      <trkpt lat="44.2058" lon="7.48288">
        <ele>1798.28</ele>
        <time>2020-01-30T08:49:54Z</time>
      </trkpt>
      <trkpt lat="44.20578" lon="7.48289">
        <ele>1799.73</ele>
        <time>2020-01-30T08:50:22Z</time>
      </trkpt>
      <trkpt lat="44.20583" lon="7.4828">
        <ele>1801.65</ele>
        <time>2020-01-30T08:50:37Z</time>
      </trkpt>
      <trkpt lat="44.20585" lon="7.48272">
        <ele>1805.49</ele>
        <time>2020-01-30T08:50:49Z</time>
      </trkpt>
      <trkpt lat="44.20588" lon="7.48265">
        <ele>1806.94</ele>
        <time>2020-01-30T08:51:03Z</time>
      </trkpt>
      <trkpt lat="44.20591" lon="7.48256">
        <ele>1808.38</ele>
        <time>2020-01-30T08:51:19Z</time>
      </trkpt>
      <trkpt lat="44.20595" lon="7.48247">
        <ele>1810.3</ele>
        <time>2020-01-30T08:51:31Z</time>
      </trkpt>
      <trkpt lat="44.20599" lon="7.48238">
        <ele>1811.26</ele>
        <time>2020-01-30T08:51:44Z</time>
      </trkpt>
      <trkpt lat="44.20602" lon="7.48229">
        <ele>1813.66</ele>
        <time>2020-01-30T08:51:55Z</time>
      </trkpt>
      <trkpt lat="44.20603" lon="7.48221">
        <ele>1814.63</ele>
        <time>2020-01-30T08:52:09Z</time>
      </trkpt>
      <trkpt lat="44.20604" lon="7.48215">
        <ele>1817.03</ele>
        <time>2020-01-30T08:52:21Z</time>
      </trkpt>
      <trkpt lat="44.20605" lon="7.48209">
        <ele>1817.51</ele>
        <time>2020-01-30T08:52:34Z</time>
      </trkpt>
      <trkpt lat="44.2061" lon="7.48203">
        <ele>1818.95</ele>
        <time>2020-01-30T08:52:49Z</time>
      </trkpt>
      <trkpt lat="44.20614" lon="7.48208">
        <ele>1820.87</ele>
        <time>2020-01-30T08:53:01Z</time>
      </trkpt>
      <trkpt lat="44.20619" lon="7.48215">
        <ele>1821.84</ele>
        <time>2020-01-30T08:53:17Z</time>
      </trkpt>
      <trkpt lat="44.20625" lon="7.4822">
        <ele>1823.28</ele>
        <time>2020-01-30T08:53:31Z</time>
      </trkpt>
      <trkpt lat="44.20625" lon="7.48216">
        <ele>1823.76</ele>
        <time>2020-01-30T08:53:41Z</time>
      </trkpt>
      <trkpt lat="44.20626" lon="7.48212">
        <ele>1827.12</ele>
        <time>2020-01-30T08:53:56Z</time>
      </trkpt>
      <trkpt lat="44.20626" lon="7.48207">
        <ele>1830.97</ele>
        <time>2020-01-30T08:54:11Z</time>
      </trkpt>
      <trkpt lat="44.20631" lon="7.48203">
        <ele>1831.93</ele>
        <time>2020-01-30T08:54:23Z</time>
      </trkpt>
      <trkpt lat="44.20634" lon="7.48209">
        <ele>1831.93</ele>
        <time>2020-01-30T08:54:37Z</time>
      </trkpt>
      <trkpt lat="44.2064" lon="7.48217">
        <ele>1834.81</ele>
        <time>2020-01-30T08:54:53Z</time>
      </trkpt>
      <trkpt lat="44.20643" lon="7.48224">
        <ele>1836.74</ele>
        <time>2020-01-30T08:55:04Z</time>
      </trkpt>
      <trkpt lat="44.20644" lon="7.48227">
        <ele>1837.22</ele>
        <time>2020-01-30T08:55:19Z</time>
      </trkpt>
      <trkpt lat="44.20646" lon="7.48218">
        <ele>1840.1</ele>
        <time>2020-01-30T08:55:35Z</time>
      </trkpt>
      <trkpt lat="44.20648" lon="7.4821">
        <ele>1841.06</ele>
        <time>2020-01-30T08:55:49Z</time>
      </trkpt>
      <trkpt lat="44.20651" lon="7.48204">
        <ele>1842.98</ele>
        <time>2020-01-30T08:56:03Z</time>
      </trkpt>
      <trkpt lat="44.20655" lon="7.48197">
        <ele>1845.87</ele>
        <time>2020-01-30T08:56:14Z</time>
      </trkpt>
      <trkpt lat="44.20656" lon="7.48196">
        <ele>1848.27</ele>
        <time>2020-01-30T08:56:25Z</time>
      </trkpt>
      <trkpt lat="44.20656" lon="7.48191">
        <ele>1849.23</ele>
        <time>2020-01-30T08:56:38Z</time>
      </trkpt>
      <trkpt lat="44.20658" lon="7.48191">
        <ele>1851.16</ele>
        <time>2020-01-30T08:56:50Z</time>
      </trkpt>
      <trkpt lat="44.20661" lon="7.48196">
        <ele>1851.16</ele>
        <time>2020-01-30T08:57:06Z</time>
      </trkpt>
      <trkpt lat="44.20665" lon="7.48204">
        <ele>1851.16</ele>
        <time>2020-01-30T08:57:21Z</time>
      </trkpt>
      <trkpt lat="44.20669" lon="7.48213">
        <ele>1852.12</ele>
        <time>2020-01-30T08:57:33Z</time>
      </trkpt>
      <trkpt lat="44.2067" lon="7.48216">
        <ele>1851.64</ele>
        <time>2020-01-30T08:57:45Z</time>
      </trkpt>
      <trkpt lat="44.20671" lon="7.48212">
        <ele>1854.52</ele>
        <time>2020-01-30T08:58:06Z</time>
      </trkpt>
      <trkpt lat="44.20672" lon="7.48207">
        <ele>1856.44</ele>
        <time>2020-01-30T08:58:16Z</time>
      </trkpt>
      <trkpt lat="44.20678" lon="7.48196">
        <ele>1858.37</ele>
        <time>2020-01-30T08:58:33Z</time>
      </trkpt>
      <trkpt lat="44.20684" lon="7.48187">
        <ele>1861.25</ele>
        <time>2020-01-30T08:58:46Z</time>
      </trkpt>
      <trkpt lat="44.20685" lon="7.4818">
        <ele>1864.61</ele>
        <time>2020-01-30T08:58:58Z</time>
      </trkpt>
      <trkpt lat="44.20687" lon="7.48176">
        <ele>1865.58</ele>
        <time>2020-01-30T08:59:10Z</time>
      </trkpt>
      <trkpt lat="44.2069" lon="7.48184">
        <ele>1867.02</ele>
        <time>2020-01-30T08:59:26Z</time>
      </trkpt>
      <trkpt lat="44.20694" lon="7.48194">
        <ele>1868.94</ele>
        <time>2020-01-30T08:59:41Z</time>
      </trkpt>
      <trkpt lat="44.20698" lon="7.48202">
        <ele>1872.3</ele>
        <time>2020-01-30T08:59:56Z</time>
      </trkpt>
      <trkpt lat="44.20699" lon="7.48208">
        <ele>1873.27</ele>
        <time>2020-01-30T09:00:08Z</time>
      </trkpt>
      <trkpt lat="44.20702" lon="7.48218">
        <ele>1875.67</ele>
        <time>2020-01-30T09:00:23Z</time>
      </trkpt>
      <trkpt lat="44.20701" lon="7.48227">
        <ele>1875.67</ele>
        <time>2020-01-30T09:00:42Z</time>
      </trkpt>
      <trkpt lat="44.20702" lon="7.48232">
        <ele>1876.63</ele>
        <time>2020-01-30T09:00:57Z</time>
      </trkpt>
      <trkpt lat="44.20701" lon="7.48234">
        <ele>1877.11</ele>
        <time>2020-01-30T09:01:17Z</time>
      </trkpt>
      <trkpt lat="44.207" lon="7.48237">
        <ele>1878.07</ele>
        <time>2020-01-30T09:01:50Z</time>
      </trkpt>
      <trkpt lat="44.20704" lon="7.48233">
        <ele>1881.92</ele>
        <time>2020-01-30T09:02:17Z</time>
      </trkpt>
      <trkpt lat="44.20707" lon="7.48237">
        <ele>1880.96</ele>
        <time>2020-01-30T09:02:28Z</time>
      </trkpt>
      <trkpt lat="44.20709" lon="7.48243">
        <ele>1882.88</ele>
        <time>2020-01-30T09:02:40Z</time>
      </trkpt>
      <trkpt lat="44.20708" lon="7.48253">
        <ele>1882.88</ele>
        <time>2020-01-30T09:02:55Z</time>
      </trkpt>
      <trkpt lat="44.20714" lon="7.48257">
        <ele>1886.24</ele>
        <time>2020-01-30T09:03:09Z</time>
      </trkpt>
      <trkpt lat="44.20718" lon="7.48259">
        <ele>1884.8</ele>
        <time>2020-01-30T09:03:27Z</time>
      </trkpt>
      <trkpt lat="44.2072" lon="7.48254">
        <ele>1888.17</ele>
        <time>2020-01-30T09:03:40Z</time>
      </trkpt>
      <trkpt lat="44.20724" lon="7.48245">
        <ele>1891.05</ele>
        <time>2020-01-30T09:03:55Z</time>
      </trkpt>
      <trkpt lat="44.20728" lon="7.48239">
        <ele>1892.49</ele>
        <time>2020-01-30T09:04:08Z</time>
      </trkpt>
      <trkpt lat="44.20732" lon="7.48231">
        <ele>1894.9</ele>
        <time>2020-01-30T09:04:23Z</time>
      </trkpt>
      <trkpt lat="44.20735" lon="7.48224">
        <ele>1896.34</ele>
        <time>2020-01-30T09:04:38Z</time>
      </trkpt>
      <trkpt lat="44.20739" lon="7.48215">
        <ele>1898.74</ele>
        <time>2020-01-30T09:04:51Z</time>
      </trkpt>
      <trkpt lat="44.20743" lon="7.48207">
        <ele>1900.18</ele>
        <time>2020-01-30T09:05:06Z</time>
      </trkpt>
      <trkpt lat="44.20746" lon="7.48199">
        <ele>1903.07</ele>
        <time>2020-01-30T09:05:24Z</time>
      </trkpt>
      <trkpt lat="44.20749" lon="7.48191">
        <ele>1905.47</ele>
        <time>2020-01-30T09:05:37Z</time>
      </trkpt>
      <trkpt lat="44.20752" lon="7.48184">
        <ele>1907.87</ele>
        <time>2020-01-30T09:05:53Z</time>
      </trkpt>
      <trkpt lat="44.20754" lon="7.48178">
        <ele>1908.35</ele>
        <time>2020-01-30T09:06:07Z</time>
      </trkpt>
      <trkpt lat="44.20758" lon="7.48171">
        <ele>1909.32</ele>
        <time>2020-01-30T09:06:20Z</time>
      </trkpt>
      <trkpt lat="44.2076" lon="7.48165">
        <ele>1911.72</ele>
        <time>2020-01-30T09:06:34Z</time>
      </trkpt>
      <trkpt lat="44.20764" lon="7.4816">
        <ele>1913.16</ele>
        <time>2020-01-30T09:06:47Z</time>
      </trkpt>
      <trkpt lat="44.20769" lon="7.48154">
        <ele>1914.6</ele>
        <time>2020-01-30T09:06:59Z</time>
      </trkpt>
      <trkpt lat="44.20772" lon="7.48147">
        <ele>1916.04</ele>
        <time>2020-01-30T09:07:13Z</time>
      </trkpt>
      <trkpt lat="44.20774" lon="7.48142">
        <ele>1918.93</ele>
        <time>2020-01-30T09:07:24Z</time>
      </trkpt>
      <trkpt lat="44.20775" lon="7.48135">
        <ele>1921.33</ele>
        <time>2020-01-30T09:07:36Z</time>
      </trkpt>
      <trkpt lat="44.20776" lon="7.48126">
        <ele>1924.22</ele>
        <time>2020-01-30T09:07:50Z</time>
      </trkpt>
      <trkpt lat="44.20779" lon="7.48121">
        <ele>1925.66</ele>
        <time>2020-01-30T09:08:04Z</time>
      </trkpt>
      <trkpt lat="44.20781" lon="7.48111">
        <ele>1927.1</ele>
        <time>2020-01-30T09:08:18Z</time>
      </trkpt>
      <trkpt lat="44.20781" lon="7.48105">
        <ele>1928.54</ele>
        <time>2020-01-30T09:08:33Z</time>
      </trkpt>
      <trkpt lat="44.20782" lon="7.48096">
        <ele>1931.43</ele>
        <time>2020-01-30T09:08:46Z</time>
      </trkpt>
      <trkpt lat="44.20784" lon="7.48093">
        <ele>1933.83</ele>
        <time>2020-01-30T09:09:01Z</time>
      </trkpt>
      <trkpt lat="44.20789" lon="7.48095">
        <ele>1935.75</ele>
        <time>2020-01-30T09:09:13Z</time>
      </trkpt>
      <trkpt lat="44.20787" lon="7.48093">
        <ele>1937.19</ele>
        <time>2020-01-30T09:09:27Z</time>
      </trkpt>
      <trkpt lat="44.20791" lon="7.48099">
        <ele>1937.19</ele>
        <time>2020-01-30T09:09:44Z</time>
      </trkpt>
      <trkpt lat="44.20799" lon="7.48106">
        <ele>1939.12</ele>
        <time>2020-01-30T09:10:03Z</time>
      </trkpt>
      <trkpt lat="44.20805" lon="7.48111">
        <ele>1940.56</ele>
        <time>2020-01-30T09:10:17Z</time>
      </trkpt>
      <trkpt lat="44.20808" lon="7.48117">
        <ele>1943.44</ele>
        <time>2020-01-30T09:10:31Z</time>
      </trkpt>
      <trkpt lat="44.20812" lon="7.48123">
        <ele>1944.88</ele>
        <time>2020-01-30T09:10:45Z</time>
      </trkpt>
      <trkpt lat="44.20816" lon="7.48128">
        <ele>1945.85</ele>
        <time>2020-01-30T09:10:57Z</time>
      </trkpt>
      <trkpt lat="44.20815" lon="7.48128">
        <ele>1944.88</ele>
        <time>2020-01-30T09:11:09Z</time>
      </trkpt>
      <trkpt lat="44.20817" lon="7.48113">
        <ele>1948.73</ele>
        <time>2020-01-30T09:11:28Z</time>
      </trkpt>
      <trkpt lat="44.20819" lon="7.48103">
        <ele>1952.57</ele>
        <time>2020-01-30T09:11:40Z</time>
      </trkpt>
      <trkpt lat="44.2082" lon="7.48095">
        <ele>1954.98</ele>
        <time>2020-01-30T09:11:55Z</time>
      </trkpt>
      <trkpt lat="44.20822" lon="7.48091">
        <ele>1957.86</ele>
        <time>2020-01-30T09:12:09Z</time>
      </trkpt>
      <trkpt lat="44.20824" lon="7.48082">
        <ele>1959.78</ele>
        <time>2020-01-30T09:12:23Z</time>
      </trkpt>
      <trkpt lat="44.20824" lon="7.48074">
        <ele>1962.19</ele>
        <time>2020-01-30T09:12:36Z</time>
      </trkpt>
      <trkpt lat="44.20827" lon="7.48067">
        <ele>1965.07</ele>
        <time>2020-01-30T09:12:49Z</time>
      </trkpt>
      <trkpt lat="44.2083" lon="7.48063">
        <ele>1963.63</ele>
        <time>2020-01-30T09:13:08Z</time>
      </trkpt>
      <trkpt lat="44.20829" lon="7.48063">
        <ele>1964.11</ele>
        <time>2020-01-30T09:13:30Z</time>
      </trkpt>
      <trkpt lat="44.20833" lon="7.48057">
        <ele>1966.03</ele>
        <time>2020-01-30T09:13:41Z</time>
      </trkpt>
      <trkpt lat="44.20837" lon="7.48049">
        <ele>1967.96</ele>
        <time>2020-01-30T09:13:55Z</time>
      </trkpt>
      <trkpt lat="44.20837" lon="7.48046">
        <ele>1968.92</ele>
        <time>2020-01-30T09:14:08Z</time>
      </trkpt>
      <trkpt lat="44.20836" lon="7.48045">
        <ele>1971.32</ele>
        <time>2020-01-30T09:14:26Z</time>
      </trkpt>
      <trkpt lat="44.20839" lon="7.48043">
        <ele>1971.32</ele>
        <time>2020-01-30T09:14:41Z</time>
      </trkpt>
      <trkpt lat="44.20844" lon="7.48049">
        <ele>1971.8</ele>
        <time>2020-01-30T09:14:53Z</time>
      </trkpt>
      <trkpt lat="44.20848" lon="7.48058">
        <ele>1974.2</ele>
        <time>2020-01-30T09:15:07Z</time>
      </trkpt>
      <trkpt lat="44.20853" lon="7.48065">
        <ele>1976.13</ele>
        <time>2020-01-30T09:15:22Z</time>
      </trkpt>
      <trkpt lat="44.20855" lon="7.48074">
        <ele>1978.05</ele>
        <time>2020-01-30T09:15:37Z</time>
      </trkpt>
      <trkpt lat="44.20859" lon="7.4808">
        <ele>1979.97</ele>
        <time>2020-01-30T09:15:51Z</time>
      </trkpt>
      <trkpt lat="44.20861" lon="7.48085">
        <ele>1981.9</ele>
        <time>2020-01-30T09:16:07Z</time>
      </trkpt>
      <trkpt lat="44.20864" lon="7.48092">
        <ele>1982.38</ele>
        <time>2020-01-30T09:16:22Z</time>
      </trkpt>
      <trkpt lat="44.20869" lon="7.481">
        <ele>1984.78</ele>
        <time>2020-01-30T09:16:35Z</time>
      </trkpt>
      <trkpt lat="44.20873" lon="7.48109">
        <ele>1985.26</ele>
        <time>2020-01-30T09:16:51Z</time>
      </trkpt>
      <trkpt lat="44.20877" lon="7.48115">
        <ele>1987.18</ele>
        <time>2020-01-30T09:17:07Z</time>
      </trkpt>
      <trkpt lat="44.20882" lon="7.48121">
        <ele>1989.1</ele>
        <time>2020-01-30T09:17:21Z</time>
      </trkpt>
      <trkpt lat="44.20883" lon="7.48123">
        <ele>1990.55</ele>
        <time>2020-01-30T09:17:40Z</time>
      </trkpt>
      <trkpt lat="44.20883" lon="7.48118">
        <ele>1991.99</ele>
        <time>2020-01-30T09:18:01Z</time>
      </trkpt>
      <trkpt lat="44.20882" lon="7.48113">
        <ele>1993.91</ele>
        <time>2020-01-30T09:18:14Z</time>
      </trkpt>
      <trkpt lat="44.20884" lon="7.48104">
        <ele>1995.83</ele>
        <time>2020-01-30T09:18:28Z</time>
      </trkpt>
      <trkpt lat="44.20886" lon="7.48098">
        <ele>1996.8</ele>
        <time>2020-01-30T09:18:41Z</time>
      </trkpt>
      <trkpt lat="44.20889" lon="7.48092">
        <ele>1998.24</ele>
        <time>2020-01-30T09:18:52Z</time>
      </trkpt>
      <trkpt lat="44.2089" lon="7.48086">
        <ele>2001.12</ele>
        <time>2020-01-30T09:19:05Z</time>
      </trkpt>
      <trkpt lat="44.20891" lon="7.48082">
        <ele>2004.01</ele>
        <time>2020-01-30T09:19:20Z</time>
      </trkpt>
      <trkpt lat="44.20891" lon="7.48077">
        <ele>2004.97</ele>
        <time>2020-01-30T09:19:34Z</time>
      </trkpt>
      <trkpt lat="44.20893" lon="7.48069">
        <ele>2009.29</ele>
        <time>2020-01-30T09:19:46Z</time>
      </trkpt>
      <trkpt lat="44.20894" lon="7.4806">
        <ele>2012.66</ele>
        <time>2020-01-30T09:19:58Z</time>
      </trkpt>
      <trkpt lat="44.20895" lon="7.48052">
        <ele>2014.1</ele>
        <time>2020-01-30T09:20:09Z</time>
      </trkpt>
      <trkpt lat="44.20894" lon="7.48049">
        <ele>2016.02</ele>
        <time>2020-01-30T09:20:32Z</time>
      </trkpt>
      <trkpt lat="44.20897" lon="7.48042">
        <ele>2016.98</ele>
        <time>2020-01-30T09:20:41Z</time>
      </trkpt>
      <trkpt lat="44.20899" lon="7.48036">
        <ele>2018.43</ele>
        <time>2020-01-30T09:20:51Z</time>
      </trkpt>
      <trkpt lat="44.209" lon="7.48031">
        <ele>2020.35</ele>
        <time>2020-01-30T09:21:01Z</time>
      </trkpt>
      <trkpt lat="44.209" lon="7.48026">
        <ele>2021.79</ele>
        <time>2020-01-30T09:21:14Z</time>
      </trkpt>
      <trkpt lat="44.20902" lon="7.4802">
        <ele>2023.23</ele>
        <time>2020-01-30T09:21:30Z</time>
      </trkpt>
      <trkpt lat="44.20906" lon="7.4802">
        <ele>2023.23</ele>
        <time>2020-01-30T09:21:46Z</time>
      </trkpt>
      <trkpt lat="44.20908" lon="7.48024">
        <ele>2024.67</ele>
        <time>2020-01-30T09:22:06Z</time>
      </trkpt>
      <trkpt lat="44.20911" lon="7.48031">
        <ele>2024.67</ele>
        <time>2020-01-30T09:22:25Z</time>
      </trkpt>
      <trkpt lat="44.20915" lon="7.48035">
        <ele>2025.15</ele>
        <time>2020-01-30T09:22:35Z</time>
      </trkpt>
      <trkpt lat="44.20921" lon="7.48041">
        <ele>2026.12</ele>
        <time>2020-01-30T09:22:51Z</time>
      </trkpt>
      <trkpt lat="44.20924" lon="7.48044">
        <ele>2027.08</ele>
        <time>2020-01-30T09:23:07Z</time>
      </trkpt>
      <trkpt lat="44.20928" lon="7.48048">
        <ele>2026.12</ele>
        <time>2020-01-30T09:23:20Z</time>
      </trkpt>
      <trkpt lat="44.20931" lon="7.48052">
        <ele>2027.08</ele>
        <time>2020-01-30T09:23:37Z</time>
      </trkpt>
      <trkpt lat="44.20934" lon="7.48057">
        <ele>2030.44</ele>
        <time>2020-01-30T09:23:56Z</time>
      </trkpt>
      <trkpt lat="44.20935" lon="7.48068">
        <ele>2033.33</ele>
        <time>2020-01-30T09:24:09Z</time>
      </trkpt>
      <trkpt lat="44.20938" lon="7.48071">
        <ele>2033.33</ele>
        <time>2020-01-30T09:24:21Z</time>
      </trkpt>
      <trkpt lat="44.20942" lon="7.48077">
        <ele>2033.81</ele>
        <time>2020-01-30T09:24:38Z</time>
      </trkpt>
      <trkpt lat="44.20948" lon="7.48083">
        <ele>2036.21</ele>
        <time>2020-01-30T09:24:51Z</time>
      </trkpt>
      <trkpt lat="44.20951" lon="7.48087">
        <ele>2039.57</ele>
        <time>2020-01-30T09:25:07Z</time>
      </trkpt>
      <trkpt lat="44.20951" lon="7.4809">
        <ele>2041.5</ele>
        <time>2020-01-30T09:25:22Z</time>
      </trkpt>
      <trkpt lat="44.20952" lon="7.48091">
        <ele>2041.5</ele>
        <time>2020-01-30T09:25:34Z</time>
      </trkpt>
      <trkpt lat="44.20952" lon="7.48081">
        <ele>2042.94</ele>
        <time>2020-01-30T09:25:48Z</time>
      </trkpt>
      <trkpt lat="44.20953" lon="7.48072">
        <ele>2045.82</ele>
        <time>2020-01-30T09:26:06Z</time>
      </trkpt>
      <trkpt lat="44.20954" lon="7.48068">
        <ele>2047.75</ele>
        <time>2020-01-30T09:26:17Z</time>
      </trkpt>
      <trkpt lat="44.20957" lon="7.48065">
        <ele>2047.75</ele>
        <time>2020-01-30T09:26:42Z</time>
      </trkpt>
      <trkpt lat="44.20956" lon="7.48062">
        <ele>2049.19</ele>
        <time>2020-01-30T09:27:10Z</time>
      </trkpt>
      <trkpt lat="44.20957" lon="7.48065">
        <ele>2046.78</ele>
        <time>2020-01-30T09:27:38Z</time>
      </trkpt>
      <trkpt lat="44.20957" lon="7.48058">
        <ele>2048.71</ele>
        <time>2020-01-30T09:27:54Z</time>
      </trkpt>
      <trkpt lat="44.20957" lon="7.48053">
        <ele>2050.15</ele>
        <time>2020-01-30T09:28:07Z</time>
      </trkpt>
      <trkpt lat="44.2096" lon="7.48045">
        <ele>2052.55</ele>
        <time>2020-01-30T09:28:23Z</time>
      </trkpt>
      <trkpt lat="44.20961" lon="7.48036">
        <ele>2054.47</ele>
        <time>2020-01-30T09:28:40Z</time>
      </trkpt>
      <trkpt lat="44.20962" lon="7.48035">
        <ele>2055.44</ele>
        <time>2020-01-30T09:28:55Z</time>
      </trkpt>
      <trkpt lat="44.20967" lon="7.48041">
        <ele>2057.84</ele>
        <time>2020-01-30T09:29:09Z</time>
      </trkpt>
      <trkpt lat="44.20969" lon="7.48048">
        <ele>2059.28</ele>
        <time>2020-01-30T09:29:23Z</time>
      </trkpt>
      <trkpt lat="44.20971" lon="7.48054">
        <ele>2061.68</ele>
        <time>2020-01-30T09:29:36Z</time>
      </trkpt>
      <trkpt lat="44.20975" lon="7.4806">
        <ele>2062.65</ele>
        <time>2020-01-30T09:29:51Z</time>
      </trkpt>
      <trkpt lat="44.20979" lon="7.48068">
        <ele>2064.57</ele>
        <time>2020-01-30T09:30:06Z</time>
      </trkpt>
      <trkpt lat="44.20983" lon="7.48074">
        <ele>2065.53</ele>
        <time>2020-01-30T09:30:19Z</time>
      </trkpt>
      <trkpt lat="44.20986" lon="7.48079">
        <ele>2066.97</ele>
        <time>2020-01-30T09:30:32Z</time>
      </trkpt>
      <trkpt lat="44.20989" lon="7.48083">
        <ele>2068.89</ele>
        <time>2020-01-30T09:30:46Z</time>
      </trkpt>
      <trkpt lat="44.20993" lon="7.48091">
        <ele>2070.82</ele>
        <time>2020-01-30T09:31:00Z</time>
      </trkpt>
      <trkpt lat="44.20998" lon="7.48099">
        <ele>2073.22</ele>
        <time>2020-01-30T09:31:16Z</time>
      </trkpt>
      <trkpt lat="44.21002" lon="7.48104">
        <ele>2075.62</ele>
        <time>2020-01-30T09:31:30Z</time>
      </trkpt>
      <trkpt lat="44.21004" lon="7.4811">
        <ele>2077.55</ele>
        <time>2020-01-30T09:31:45Z</time>
      </trkpt>
      <trkpt lat="44.21007" lon="7.48116">
        <ele>2080.43</ele>
        <time>2020-01-30T09:32:00Z</time>
      </trkpt>
      <trkpt lat="44.2101" lon="7.4812">
        <ele>2081.87</ele>
        <time>2020-01-30T09:32:14Z</time>
      </trkpt>
      <trkpt lat="44.21009" lon="7.48117">
        <ele>2083.31</ele>
        <time>2020-01-30T09:32:29Z</time>
      </trkpt>
      <trkpt lat="44.21011" lon="7.48107">
        <ele>2083.79</ele>
        <time>2020-01-30T09:32:44Z</time>
      </trkpt>
      <trkpt lat="44.21015" lon="7.48096">
        <ele>2085.24</ele>
        <time>2020-01-30T09:32:57Z</time>
      </trkpt>
      <trkpt lat="44.21015" lon="7.48092">
        <ele>2088.6</ele>
        <time>2020-01-30T09:33:10Z</time>
      </trkpt>
      <trkpt lat="44.21017" lon="7.48084">
        <ele>2090.52</ele>
        <time>2020-01-30T09:33:24Z</time>
      </trkpt>
      <trkpt lat="44.21018" lon="7.48076">
        <ele>2092.45</ele>
        <time>2020-01-30T09:33:35Z</time>
      </trkpt>
      <trkpt lat="44.21019" lon="7.48071">
        <ele>2094.37</ele>
        <time>2020-01-30T09:33:48Z</time>
      </trkpt>
      <trkpt lat="44.21019" lon="7.48067">
        <ele>2095.33</ele>
        <time>2020-01-30T09:34:06Z</time>
      </trkpt>
      <trkpt lat="44.21023" lon="7.48068">
        <ele>2095.33</ele>
        <time>2020-01-30T09:34:19Z</time>
      </trkpt>
      <trkpt lat="44.21026" lon="7.48072">
        <ele>2098.21</ele>
        <time>2020-01-30T09:34:32Z</time>
      </trkpt>
      <trkpt lat="44.21027" lon="7.48074">
        <ele>2099.18</ele>
        <time>2020-01-30T09:34:44Z</time>
      </trkpt>
      <trkpt lat="44.21031" lon="7.48073">
        <ele>2095.81</ele>
        <time>2020-01-30T09:35:12Z</time>
      </trkpt>
      <trkpt lat="44.21029" lon="7.48072">
        <ele>2096.29</ele>
        <time>2020-01-30T09:35:38Z</time>
      </trkpt>
      <trkpt lat="44.2103" lon="7.48071">
        <ele>2095.81</ele>
        <time>2020-01-30T09:36:05Z</time>
      </trkpt>
      <trkpt lat="44.21032" lon="7.48072">
        <ele>2095.81</ele>
        <time>2020-01-30T09:36:36Z</time>
      </trkpt>
      <trkpt lat="44.21031" lon="7.4807">
        <ele>2095.81</ele>
        <time>2020-01-30T09:36:54Z</time>
      </trkpt>
      <trkpt lat="44.21031" lon="7.48071">
        <ele>2096.29</ele>
        <time>2020-01-30T09:37:21Z</time>
      </trkpt>
      <trkpt lat="44.21032" lon="7.4807">
        <ele>2097.73</ele>
        <time>2020-01-30T09:37:45Z</time>
      </trkpt>
      <trkpt lat="44.21032" lon="7.48065">
        <ele>2099.18</ele>
        <time>2020-01-30T09:38:10Z</time>
      </trkpt>
      <trkpt lat="44.21033" lon="7.48059">
        <ele>2102.06</ele>
        <time>2020-01-30T09:38:22Z</time>
      </trkpt>
      <trkpt lat="44.21033" lon="7.48054">
        <ele>2104.46</ele>
        <time>2020-01-30T09:38:35Z</time>
      </trkpt>
      <trkpt lat="44.21034" lon="7.48052">
        <ele>2103.5</ele>
        <time>2020-01-30T09:38:59Z</time>
      </trkpt>
      <trkpt lat="44.21035" lon="7.48048">
        <ele>2103.5</ele>
        <time>2020-01-30T09:39:13Z</time>
      </trkpt>
      <trkpt lat="44.21036" lon="7.48041">
        <ele>2105.42</ele>
        <time>2020-01-30T09:39:24Z</time>
      </trkpt>
      <trkpt lat="44.21039" lon="7.48034">
        <ele>2105.91</ele>
        <time>2020-01-30T09:39:36Z</time>
      </trkpt>
      <trkpt lat="44.21041" lon="7.48028">
        <ele>2108.31</ele>
        <time>2020-01-30T09:39:50Z</time>
      </trkpt>
      <trkpt lat="44.2104" lon="7.48027">
        <ele>2108.31</ele>
        <time>2020-01-30T09:40:11Z</time>
      </trkpt>
      <trkpt lat="44.2104" lon="7.48026">
        <ele>2108.31</ele>
        <time>2020-01-30T09:40:56Z</time>
      </trkpt>
      <trkpt lat="44.2104" lon="7.48027">
        <ele>2111.19</ele>
        <time>2020-01-30T09:41:33Z</time>
      </trkpt>
      <trkpt lat="44.21041" lon="7.48026">
        <ele>2109.27</ele>
        <time>2020-01-30T09:41:53Z</time>
      </trkpt>
      <trkpt lat="44.21045" lon="7.4802">
        <ele>2111.67</ele>
        <time>2020-01-30T09:42:06Z</time>
      </trkpt>
      <trkpt lat="44.21045" lon="7.4802">
        <ele>2112.15</ele>
        <time>2020-01-30T09:42:16Z</time>
      </trkpt>
      <trkpt lat="44.21045" lon="7.48015">
        <ele>2113.6</ele>
        <time>2020-01-30T09:42:28Z</time>
      </trkpt>
      <trkpt lat="44.21046" lon="7.48011">
        <ele>2115.04</ele>
        <time>2020-01-30T09:42:39Z</time>
      </trkpt>
      <trkpt lat="44.21049" lon="7.48011">
        <ele>2116</ele>
        <time>2020-01-30T09:42:56Z</time>
      </trkpt>
      <trkpt lat="44.2105" lon="7.48009">
        <ele>2117.92</ele>
        <time>2020-01-30T09:43:24Z</time>
      </trkpt>
      <trkpt lat="44.21051" lon="7.48003">
        <ele>2119.36</ele>
        <time>2020-01-30T09:43:37Z</time>
      </trkpt>
      <trkpt lat="44.21052" lon="7.47995">
        <ele>2121.77</ele>
        <time>2020-01-30T09:43:48Z</time>
      </trkpt>
      <trkpt lat="44.21056" lon="7.47992">
        <ele>2123.69</ele>
        <time>2020-01-30T09:44:05Z</time>
      </trkpt>
      <trkpt lat="44.21058" lon="7.47984">
        <ele>2127.05</ele>
        <time>2020-01-30T09:44:21Z</time>
      </trkpt>
      <trkpt lat="44.21058" lon="7.47976">
        <ele>2128.98</ele>
        <time>2020-01-30T09:44:32Z</time>
      </trkpt>
      <trkpt lat="44.2106" lon="7.47971">
        <ele>2129.94</ele>
        <time>2020-01-30T09:44:45Z</time>
      </trkpt>
      <trkpt lat="44.21061" lon="7.47969">
        <ele>2131.38</ele>
        <time>2020-01-30T09:45:00Z</time>
      </trkpt>
      <trkpt lat="44.21064" lon="7.47965">
        <ele>2130.9</ele>
        <time>2020-01-30T09:45:19Z</time>
      </trkpt>
      <trkpt lat="44.21065" lon="7.47959">
        <ele>2131.86</ele>
        <time>2020-01-30T09:45:34Z</time>
      </trkpt>
      <trkpt lat="44.21065" lon="7.47955">
        <ele>2134.26</ele>
        <time>2020-01-30T09:45:46Z</time>
      </trkpt>
      <trkpt lat="44.21065" lon="7.47948">
        <ele>2135.23</ele>
        <time>2020-01-30T09:46:01Z</time>
      </trkpt>
      <trkpt lat="44.21066" lon="7.47944">
        <ele>2135.23</ele>
        <time>2020-01-30T09:46:18Z</time>
      </trkpt>
      <trkpt lat="44.21066" lon="7.47943">
        <ele>2135.23</ele>
        <time>2020-01-30T09:46:41Z</time>
      </trkpt>
      <trkpt lat="44.21066" lon="7.47941">
        <ele>2133.3</ele>
        <time>2020-01-30T09:46:55Z</time>
      </trkpt>
      <trkpt lat="44.21065" lon="7.4794">
        <ele>2133.3</ele>
        <time>2020-01-30T09:47:15Z</time>
      </trkpt>
      <trkpt lat="44.21065" lon="7.47938">
        <ele>2131.86</ele>
        <time>2020-01-30T09:47:30Z</time>
      </trkpt>
      <trkpt lat="44.21064" lon="7.47937">
        <ele>2131.86</ele>
        <time>2020-01-30T09:47:46Z</time>
      </trkpt>
      <trkpt lat="44.21065" lon="7.47934">
        <ele>2131.86</ele>
        <time>2020-01-30T09:47:58Z</time>
      </trkpt>
      <trkpt lat="44.21064" lon="7.4793">
        <ele>2132.34</ele>
        <time>2020-01-30T09:48:14Z</time>
      </trkpt>
      <trkpt lat="44.21063" lon="7.47923">
        <ele>2132.34</ele>
        <time>2020-01-30T09:48:27Z</time>
      </trkpt>
      <trkpt lat="44.21063" lon="7.47918">
        <ele>2133.78</ele>
        <time>2020-01-30T09:48:44Z</time>
      </trkpt>
      <trkpt lat="44.21062" lon="7.47912">
        <ele>2133.78</ele>
        <time>2020-01-30T09:48:56Z</time>
      </trkpt>
      <trkpt lat="44.21061" lon="7.47906">
        <ele>2133.3</ele>
        <time>2020-01-30T09:49:09Z</time>
      </trkpt>
      <trkpt lat="44.2106" lon="7.47897">
        <ele>2134.26</ele>
        <time>2020-01-30T09:49:22Z</time>
      </trkpt>
      <trkpt lat="44.21059" lon="7.47888">
        <ele>2136.19</ele>
        <time>2020-01-30T09:49:35Z</time>
      </trkpt>
      <trkpt lat="44.21059" lon="7.47882">
        <ele>2137.63</ele>
        <time>2020-01-30T09:49:48Z</time>
      </trkpt>
      <trkpt lat="44.21058" lon="7.47872">
        <ele>2138.59</ele>
        <time>2020-01-30T09:50:01Z</time>
      </trkpt>
      <trkpt lat="44.21058" lon="7.47866">
        <ele>2139.07</ele>
        <time>2020-01-30T09:50:13Z</time>
      </trkpt>
      <trkpt lat="44.21057" lon="7.47859">
        <ele>2140.03</ele>
        <time>2020-01-30T09:50:25Z</time>
      </trkpt>
      <trkpt lat="44.21056" lon="7.47853">
        <ele>2140.03</ele>
        <time>2020-01-30T09:50:42Z</time>
      </trkpt>
      <trkpt lat="44.21055" lon="7.47846">
        <ele>2139.55</ele>
        <time>2020-01-30T09:50:54Z</time>
      </trkpt>
      <trkpt lat="44.21054" lon="7.47834">
        <ele>2138.59</ele>
        <time>2020-01-30T09:51:08Z</time>
      </trkpt>
      <trkpt lat="44.21055" lon="7.47827">
        <ele>2139.55</ele>
        <time>2020-01-30T09:51:22Z</time>
      </trkpt>
      <trkpt lat="44.21055" lon="7.47828">
        <ele>2139.07</ele>
        <time>2020-01-30T09:51:37Z</time>
      </trkpt>
      <trkpt lat="44.21054" lon="7.47821">
        <ele>2138.59</ele>
        <time>2020-01-30T09:51:55Z</time>
      </trkpt>
      <trkpt lat="44.21055" lon="7.47806">
        <ele>2139.07</ele>
        <time>2020-01-30T09:52:09Z</time>
      </trkpt>
      <trkpt lat="44.21056" lon="7.47799">
        <ele>2140.51</ele>
        <time>2020-01-30T09:52:21Z</time>
      </trkpt>
      <trkpt lat="44.21055" lon="7.47792">
        <ele>2144.36</ele>
        <time>2020-01-30T09:52:44Z</time>
      </trkpt>
      <trkpt lat="44.21055" lon="7.4779">
        <ele>2144.36</ele>
        <time>2020-01-30T09:53:02Z</time>
      </trkpt>
      <trkpt lat="44.21056" lon="7.47778">
        <ele>2145.32</ele>
        <time>2020-01-30T09:53:20Z</time>
      </trkpt>
      <trkpt lat="44.21058" lon="7.4777">
        <ele>2147.72</ele>
        <time>2020-01-30T09:53:32Z</time>
      </trkpt>
      <trkpt lat="44.21058" lon="7.47761">
        <ele>2151.57</ele>
        <time>2020-01-30T09:53:45Z</time>
      </trkpt>
      <trkpt lat="44.21058" lon="7.4776">
        <ele>2153.01</ele>
        <time>2020-01-30T09:54:00Z</time>
      </trkpt>
      <trkpt lat="44.2106" lon="7.47754">
        <ele>2154.45</ele>
        <time>2020-01-30T09:54:15Z</time>
      </trkpt>
      <trkpt lat="44.21063" lon="7.47751">
        <ele>2155.89</ele>
        <time>2020-01-30T09:54:31Z</time>
      </trkpt>
      <trkpt lat="44.21067" lon="7.47745">
        <ele>2158.3</ele>
        <time>2020-01-30T09:54:44Z</time>
      </trkpt>
      <trkpt lat="44.21067" lon="7.4774">
        <ele>2160.7</ele>
        <time>2020-01-30T09:54:58Z</time>
      </trkpt>
      <trkpt lat="44.21063" lon="7.47736">
        <ele>2163.1</ele>
        <time>2020-01-30T09:55:09Z</time>
      </trkpt>
      <trkpt lat="44.21066" lon="7.47734">
        <ele>2164.55</ele>
        <time>2020-01-30T09:55:20Z</time>
      </trkpt>
      <trkpt lat="44.21068" lon="7.47731">
        <ele>2165.03</ele>
        <time>2020-01-30T09:55:32Z</time>
      </trkpt>
      <trkpt lat="44.21072" lon="7.47728">
        <ele>2167.43</ele>
        <time>2020-01-30T09:55:45Z</time>
      </trkpt>
      <trkpt lat="44.21074" lon="7.47726">
        <ele>2169.35</ele>
        <time>2020-01-30T09:55:59Z</time>
      </trkpt>
      <trkpt lat="44.21073" lon="7.47724">
        <ele>2168.87</ele>
        <time>2020-01-30T09:56:09Z</time>
      </trkpt>
      <trkpt lat="44.21073" lon="7.47719">
        <ele>2170.79</ele>
        <time>2020-01-30T09:56:26Z</time>
      </trkpt>
      <trkpt lat="44.21072" lon="7.47712">
        <ele>2172.24</ele>
        <time>2020-01-30T09:56:38Z</time>
      </trkpt>
      <trkpt lat="44.21073" lon="7.47698">
        <ele>2174.16</ele>
        <time>2020-01-30T09:56:53Z</time>
      </trkpt>
      <trkpt lat="44.21073" lon="7.47694">
        <ele>2176.56</ele>
        <time>2020-01-30T09:57:09Z</time>
      </trkpt>
      <trkpt lat="44.21076" lon="7.47686">
        <ele>2177.04</ele>
        <time>2020-01-30T09:57:21Z</time>
      </trkpt>
      <trkpt lat="44.21078" lon="7.47676">
        <ele>2178.97</ele>
        <time>2020-01-30T09:57:34Z</time>
      </trkpt>
      <trkpt lat="44.21081" lon="7.47659">
        <ele>2178</ele>
        <time>2020-01-30T09:57:50Z</time>
      </trkpt>
      <trkpt lat="44.21082" lon="7.47653">
        <ele>2179.45</ele>
        <time>2020-01-30T09:58:05Z</time>
      </trkpt>
      <trkpt lat="44.21083" lon="7.47645">
        <ele>2182.33</ele>
        <time>2020-01-30T09:58:19Z</time>
      </trkpt>
      <trkpt lat="44.21084" lon="7.47636">
        <ele>2186.66</ele>
        <time>2020-01-30T09:58:34Z</time>
      </trkpt>
      <trkpt lat="44.21083" lon="7.47628">
        <ele>2188.1</ele>
        <time>2020-01-30T09:58:47Z</time>
      </trkpt>
      <trkpt lat="44.21082" lon="7.47626">
        <ele>2190.02</ele>
        <time>2020-01-30T09:59:02Z</time>
      </trkpt>
      <trkpt lat="44.21082" lon="7.47615">
        <ele>2191.46</ele>
        <time>2020-01-30T09:59:17Z</time>
      </trkpt>
      <trkpt lat="44.21084" lon="7.47606">
        <ele>2193.87</ele>
        <time>2020-01-30T09:59:31Z</time>
      </trkpt>
      <trkpt lat="44.21089" lon="7.47602">
        <ele>2194.35</ele>
        <time>2020-01-30T09:59:45Z</time>
      </trkpt>
      <trkpt lat="44.21093" lon="7.47604">
        <ele>2195.31</ele>
        <time>2020-01-30T09:59:56Z</time>
      </trkpt>
      <trkpt lat="44.21098" lon="7.47607">
        <ele>2196.75</ele>
        <time>2020-01-30T10:00:08Z</time>
      </trkpt>
      <trkpt lat="44.21101" lon="7.47612">
        <ele>2198.67</ele>
        <time>2020-01-30T10:00:20Z</time>
      </trkpt>
      <trkpt lat="44.21103" lon="7.47614">
        <ele>2203</ele>
        <time>2020-01-30T10:00:36Z</time>
      </trkpt>
      <trkpt lat="44.21106" lon="7.47613">
        <ele>2204.92</ele>
        <time>2020-01-30T10:00:50Z</time>
      </trkpt>
      <trkpt lat="44.21103" lon="7.47609">
        <ele>2205.88</ele>
        <time>2020-01-30T10:01:19Z</time>
      </trkpt>
      <trkpt lat="44.21097" lon="7.47598">
        <ele>2205.88</ele>
        <time>2020-01-30T10:01:34Z</time>
      </trkpt>
      <trkpt lat="44.21096" lon="7.47596">
        <ele>2205.88</ele>
        <time>2020-01-30T10:01:46Z</time>
      </trkpt>
      <trkpt lat="44.21093" lon="7.47592">
        <ele>2207.81</ele>
        <time>2020-01-30T10:02:05Z</time>
      </trkpt>
      <trkpt lat="44.21091" lon="7.47582">
        <ele>2209.73</ele>
        <time>2020-01-30T10:02:18Z</time>
      </trkpt>
      <trkpt lat="44.21088" lon="7.47578">
        <ele>2210.21</ele>
        <time>2020-01-30T10:02:29Z</time>
      </trkpt>
      <trkpt lat="44.21085" lon="7.47573">
        <ele>2209.73</ele>
        <time>2020-01-30T10:02:42Z</time>
      </trkpt>
      <trkpt lat="44.21083" lon="7.47567">
        <ele>2212.13</ele>
        <time>2020-01-30T10:02:55Z</time>
      </trkpt>
      <trkpt lat="44.2108" lon="7.47565">
        <ele>2213.09</ele>
        <time>2020-01-30T10:03:13Z</time>
      </trkpt>
      <trkpt lat="44.21076" lon="7.47561">
        <ele>2213.57</ele>
        <time>2020-01-30T10:03:26Z</time>
      </trkpt>
      <trkpt lat="44.21073" lon="7.47557">
        <ele>2214.05</ele>
        <time>2020-01-30T10:03:41Z</time>
      </trkpt>
      <trkpt lat="44.2107" lon="7.47553">
        <ele>2214.05</ele>
        <time>2020-01-30T10:03:56Z</time>
      </trkpt>
      <trkpt lat="44.21071" lon="7.47554">
        <ele>2212.13</ele>
        <time>2020-01-30T10:04:16Z</time>
      </trkpt>
      <trkpt lat="44.21068" lon="7.47549">
        <ele>2215.98</ele>
        <time>2020-01-30T10:04:46Z</time>
      </trkpt>
      <trkpt lat="44.21064" lon="7.47548">
        <ele>2217.9</ele>
        <time>2020-01-30T10:05:01Z</time>
      </trkpt>
      <trkpt lat="44.21065" lon="7.47544">
        <ele>2219.82</ele>
        <time>2020-01-30T10:05:15Z</time>
      </trkpt>
      <trkpt lat="44.21067" lon="7.47541">
        <ele>2221.74</ele>
        <time>2020-01-30T10:05:27Z</time>
      </trkpt>
      <trkpt lat="44.21069" lon="7.47538">
        <ele>2224.63</ele>
        <time>2020-01-30T10:05:44Z</time>
      </trkpt>
      <trkpt lat="44.21069" lon="7.47533">
        <ele>2226.55</ele>
        <time>2020-01-30T10:05:58Z</time>
      </trkpt>
      <trkpt lat="44.21068" lon="7.4753">
        <ele>2225.59</ele>
        <time>2020-01-30T10:06:10Z</time>
      </trkpt>
      <trkpt lat="44.21066" lon="7.47532">
        <ele>2226.55</ele>
        <time>2020-01-30T10:06:27Z</time>
      </trkpt>
      <trkpt lat="44.21069" lon="7.47532">
        <ele>2226.55</ele>
        <time>2020-01-30T10:06:59Z</time>
      </trkpt>
      <trkpt lat="44.21067" lon="7.47533">
        <ele>2227.03</ele>
        <time>2020-01-30T10:07:24Z</time>
      </trkpt>
      <trkpt lat="44.21066" lon="7.47534">
        <ele>2226.55</ele>
        <time>2020-01-30T10:07:42Z</time>
      </trkpt>
      <trkpt lat="44.21066" lon="7.47538">
        <ele>2225.11</ele>
        <time>2020-01-30T10:08:00Z</time>
      </trkpt>
      <trkpt lat="44.21065" lon="7.47528">
        <ele>2221.74</ele>
        <time>2020-01-30T10:08:30Z</time>
      </trkpt>
      <trkpt lat="44.21067" lon="7.47531">
        <ele>2223.19</ele>
        <time>2020-01-30T10:09:00Z</time>
      </trkpt>
      <trkpt lat="44.21066" lon="7.47531">
        <ele>2222.71</ele>
        <time>2020-01-30T10:09:21Z</time>
      </trkpt>
      <trkpt lat="44.21065" lon="7.4753">
        <ele>2223.67</ele>
        <time>2020-01-30T10:09:49Z</time>
      </trkpt>
      <trkpt lat="44.21064" lon="7.47532">
        <ele>2225.11</ele>
        <time>2020-01-30T10:10:15Z</time>
      </trkpt>
      <trkpt lat="44.21064" lon="7.47532">
        <ele>2223.19</ele>
        <time>2020-01-30T10:10:36Z</time>
      </trkpt>
      <trkpt lat="44.21065" lon="7.47533">
        <ele>2225.59</ele>
        <time>2020-01-30T10:10:54Z</time>
      </trkpt>
      <trkpt lat="44.21065" lon="7.47535">
        <ele>2227.99</ele>
        <time>2020-01-30T10:11:16Z</time>
      </trkpt>
      <trkpt lat="44.21067" lon="7.4753">
        <ele>2225.59</ele>
        <time>2020-01-30T10:11:32Z</time>
      </trkpt>
      <trkpt lat="44.21065" lon="7.47534">
        <ele>2225.11</ele>
        <time>2020-01-30T10:11:52Z</time>
      </trkpt>
      <trkpt lat="44.21066" lon="7.47535">
        <ele>2224.63</ele>
        <time>2020-01-30T10:12:11Z</time>
      </trkpt>
      <trkpt lat="44.21066" lon="7.47537">
        <ele>2224.15</ele>
        <time>2020-01-30T10:12:31Z</time>
      </trkpt>
      <trkpt lat="44.21065" lon="7.47534">
        <ele>2223.19</ele>
        <time>2020-01-30T10:12:54Z</time>
      </trkpt>
      <trkpt lat="44.21064" lon="7.47533">
        <ele>2224.15</ele>
        <time>2020-01-30T10:13:22Z</time>
      </trkpt>
      <trkpt lat="44.21063" lon="7.47526">
        <ele>2220.78</ele>
        <time>2020-01-30T10:13:40Z</time>
      </trkpt>
      <trkpt lat="44.21062" lon="7.47527">
        <ele>2222.71</ele>
        <time>2020-01-30T10:14:17Z</time>
      </trkpt>
      <trkpt lat="44.21062" lon="7.47527">
        <ele>2225.11</ele>
        <time>2020-01-30T10:14:53Z</time>
      </trkpt>
      <trkpt lat="44.21064" lon="7.47529">
        <ele>2227.51</ele>
        <time>2020-01-30T10:15:21Z</time>
      </trkpt>
      <trkpt lat="44.21065" lon="7.47526">
        <ele>2228.47</ele>
        <time>2020-01-30T10:15:47Z</time>
      </trkpt>
      <trkpt lat="44.21062" lon="7.47526">
        <ele>2229.43</ele>
        <time>2020-01-30T10:16:13Z</time>
      </trkpt>
      <trkpt lat="44.21065" lon="7.47523">
        <ele>2228.47</ele>
        <time>2020-01-30T10:16:39Z</time>
      </trkpt>
      <trkpt lat="44.21065" lon="7.47528">
        <ele>2228.95</ele>
        <time>2020-01-30T10:16:54Z</time>
      </trkpt>
      <trkpt lat="44.21061" lon="7.47529">
        <ele>2229.43</ele>
        <time>2020-01-30T10:17:13Z</time>
      </trkpt>
      <trkpt lat="44.21063" lon="7.47529">
        <ele>2229.92</ele>
        <time>2020-01-30T10:17:38Z</time>
      </trkpt>
      <trkpt lat="44.21064" lon="7.4753">
        <ele>2230.88</ele>
        <time>2020-01-30T10:18:00Z</time>
      </trkpt>
      <trkpt lat="44.21064" lon="7.4753">
        <ele>2229.92</ele>
        <time>2020-01-30T10:18:12Z</time>
      </trkpt>
      <trkpt lat="44.21064" lon="7.47529">
        <ele>2230.88</ele>
        <time>2020-01-30T10:18:29Z</time>
      </trkpt>
      <trkpt lat="44.21063" lon="7.47531">
        <ele>2230.4</ele>
        <time>2020-01-30T10:18:52Z</time>
      </trkpt>
      <trkpt lat="44.21063" lon="7.47532">
        <ele>2231.84</ele>
        <time>2020-01-30T10:19:16Z</time>
      </trkpt>
      <trkpt lat="44.21062" lon="7.4753">
        <ele>2232.32</ele>
        <time>2020-01-30T10:19:35Z</time>
      </trkpt>
      <trkpt lat="44.21064" lon="7.4753">
        <ele>2233.28</ele>
        <time>2020-01-30T10:19:57Z</time>
      </trkpt>
      <trkpt lat="44.21065" lon="7.47536">
        <ele>2232.32</ele>
        <time>2020-01-30T10:20:18Z</time>
      </trkpt>
      <trkpt lat="44.21067" lon="7.47545">
        <ele>2228.95</ele>
        <time>2020-01-30T10:20:31Z</time>
      </trkpt>
      <trkpt lat="44.21068" lon="7.47546">
        <ele>2228.47</ele>
        <time>2020-01-30T10:20:32Z</time>
      </trkpt>
      <trkpt lat="44.21072" lon="7.47553">
        <ele>2225.11</ele>
        <time>2020-01-30T10:20:39Z</time>
      </trkpt>
      <trkpt lat="44.21082" lon="7.47566">
        <ele>2219.34</ele>
        <time>2020-01-30T10:20:50Z</time>
      </trkpt>
      <trkpt lat="44.21086" lon="7.4757">
        <ele>2217.42</ele>
        <time>2020-01-30T10:20:53Z</time>
      </trkpt>
      <trkpt lat="44.21088" lon="7.47571">
        <ele>2217.42</ele>
        <time>2020-01-30T10:20:55Z</time>
      </trkpt>
      <trkpt lat="44.21098" lon="7.47596">
        <ele>2215.98</ele>
        <time>2020-01-30T10:21:06Z</time>
      </trkpt>
      <trkpt lat="44.21102" lon="7.47608">
        <ele>2215.98</ele>
        <time>2020-01-30T10:21:09Z</time>
      </trkpt>
      <trkpt lat="44.21107" lon="7.47621">
        <ele>2215.98</ele>
        <time>2020-01-30T10:21:22Z</time>
      </trkpt>
      <trkpt lat="44.21109" lon="7.47619">
        <ele>2216.46</ele>
        <time>2020-01-30T10:21:38Z</time>
      </trkpt>
      <trkpt lat="44.21108" lon="7.47614">
        <ele>2216.46</ele>
        <time>2020-01-30T10:21:53Z</time>
      </trkpt>
      <trkpt lat="44.21111" lon="7.47608">
        <ele>2208.77</ele>
        <time>2020-01-30T10:22:19Z</time>
      </trkpt>
      <trkpt lat="44.2111" lon="7.47608">
        <ele>2205.88</ele>
        <time>2020-01-30T10:22:41Z</time>
      </trkpt>
      <trkpt lat="44.21111" lon="7.47609">
        <ele>2205.88</ele>
        <time>2020-01-30T10:23:00Z</time>
      </trkpt>
      <trkpt lat="44.2111" lon="7.47608">
        <ele>2203.96</ele>
        <time>2020-01-30T10:23:13Z</time>
      </trkpt>
      <trkpt lat="44.21112" lon="7.4761">
        <ele>2204.92</ele>
        <time>2020-01-30T10:23:30Z</time>
      </trkpt>
      <trkpt lat="44.2111" lon="7.47608">
        <ele>2204.44</ele>
        <time>2020-01-30T10:23:49Z</time>
      </trkpt>
      <trkpt lat="44.21111" lon="7.47608">
        <ele>2204.44</ele>
        <time>2020-01-30T10:24:04Z</time>
      </trkpt>
      <trkpt lat="44.21109" lon="7.47606">
        <ele>2203.48</ele>
        <time>2020-01-30T10:24:22Z</time>
      </trkpt>
      <trkpt lat="44.21109" lon="7.47606">
        <ele>2203</ele>
        <time>2020-01-30T10:24:34Z</time>
      </trkpt>
      <trkpt lat="44.2111" lon="7.47608">
        <ele>2199.63</ele>
        <time>2020-01-30T10:25:01Z</time>
      </trkpt>
      <trkpt lat="44.21113" lon="7.47607">
        <ele>2200.11</ele>
        <time>2020-01-30T10:25:18Z</time>
      </trkpt>
      <trkpt lat="44.21114" lon="7.47606">
        <ele>2200.59</ele>
        <time>2020-01-30T10:25:35Z</time>
      </trkpt>
      <trkpt lat="44.21113" lon="7.47605">
        <ele>2199.15</ele>
        <time>2020-01-30T10:25:48Z</time>
      </trkpt>
      <trkpt lat="44.21111" lon="7.47605">
        <ele>2199.15</ele>
        <time>2020-01-30T10:26:26Z</time>
      </trkpt>
      <trkpt lat="44.2111" lon="7.47606">
        <ele>2200.59</ele>
        <time>2020-01-30T10:27:08Z</time>
      </trkpt>
      <trkpt lat="44.2111" lon="7.47608">
        <ele>2203</ele>
        <time>2020-01-30T10:27:46Z</time>
      </trkpt>
      <trkpt lat="44.21109" lon="7.47608">
        <ele>2203</ele>
        <time>2020-01-30T10:28:21Z</time>
      </trkpt>
      <trkpt lat="44.21111" lon="7.47608">
        <ele>2203</ele>
        <time>2020-01-30T10:28:59Z</time>
      </trkpt>
      <trkpt lat="44.21111" lon="7.47609">
        <ele>2202.04</ele>
        <time>2020-01-30T10:29:38Z</time>
      </trkpt>
      <trkpt lat="44.2111" lon="7.47608">
        <ele>2202.04</ele>
        <time>2020-01-30T10:30:14Z</time>
      </trkpt>
      <trkpt lat="44.21111" lon="7.47609">
        <ele>2201.08</ele>
        <time>2020-01-30T10:30:47Z</time>
      </trkpt>
      <trkpt lat="44.2111" lon="7.47609">
        <ele>2201.08</ele>
        <time>2020-01-30T10:31:27Z</time>
      </trkpt>
      <trkpt lat="44.21108" lon="7.47608">
        <ele>2196.75</ele>
        <time>2020-01-30T10:32:09Z</time>
      </trkpt>
      <trkpt lat="44.21108" lon="7.47607">
        <ele>2196.75</ele>
        <time>2020-01-30T10:32:48Z</time>
      </trkpt>
      <trkpt lat="44.2111" lon="7.47606">
        <ele>2198.67</ele>
        <time>2020-01-30T10:33:23Z</time>
      </trkpt>
      <trkpt lat="44.21109" lon="7.47608">
        <ele>2199.15</ele>
        <time>2020-01-30T10:34:07Z</time>
      </trkpt>
      <trkpt lat="44.21109" lon="7.47607">
        <ele>2198.67</ele>
        <time>2020-01-30T10:34:49Z</time>
      </trkpt>
      <trkpt lat="44.2111" lon="7.47608">
        <ele>2196.75</ele>
        <time>2020-01-30T10:35:20Z</time>
      </trkpt>
      <trkpt lat="44.2111" lon="7.47606">
        <ele>2198.67</ele>
        <time>2020-01-30T10:35:38Z</time>
      </trkpt>
      <trkpt lat="44.21109" lon="7.4761">
        <ele>2196.27</ele>
        <time>2020-01-30T10:35:49Z</time>
      </trkpt>
      <trkpt lat="44.2111" lon="7.4761">
        <ele>2197.23</ele>
        <time>2020-01-30T10:36:27Z</time>
      </trkpt>
      <trkpt lat="44.21108" lon="7.47608">
        <ele>2195.31</ele>
        <time>2020-01-30T10:36:58Z</time>
      </trkpt>
      <trkpt lat="44.21109" lon="7.47608">
        <ele>2196.75</ele>
        <time>2020-01-30T10:37:29Z</time>
      </trkpt>
      <trkpt lat="44.2111" lon="7.47611">
        <ele>2197.23</ele>
        <time>2020-01-30T10:38:05Z</time>
      </trkpt>
      <trkpt lat="44.21111" lon="7.47613">
        <ele>2199.63</ele>
        <time>2020-01-30T10:38:40Z</time>
      </trkpt>
      <trkpt lat="44.21111" lon="7.47608">
        <ele>2200.11</ele>
        <time>2020-01-30T10:39:04Z</time>
      </trkpt>
      <trkpt lat="44.21112" lon="7.47606">
        <ele>2201.08</ele>
        <time>2020-01-30T10:39:26Z</time>
      </trkpt>
      <trkpt lat="44.21107" lon="7.47609">
        <ele>2200.11</ele>
        <time>2020-01-30T10:39:54Z</time>
      </trkpt>
      <trkpt lat="44.21107" lon="7.47608">
        <ele>2197.23</ele>
        <time>2020-01-30T10:40:20Z</time>
      </trkpt>
      <trkpt lat="44.21109" lon="7.47608">
        <ele>2195.79</ele>
        <time>2020-01-30T10:40:51Z</time>
      </trkpt>
      <trkpt lat="44.21109" lon="7.4761">
        <ele>2196.27</ele>
        <time>2020-01-30T10:41:26Z</time>
      </trkpt>
      <trkpt lat="44.21111" lon="7.47611">
        <ele>2197.71</ele>
        <time>2020-01-30T10:41:39Z</time>
      </trkpt>
      <trkpt lat="44.2111" lon="7.47613">
        <ele>2197.23</ele>
        <time>2020-01-30T10:42:01Z</time>
      </trkpt>
      <trkpt lat="44.21108" lon="7.47609">
        <ele>2196.75</ele>
        <time>2020-01-30T10:42:27Z</time>
      </trkpt>
      <trkpt lat="44.21106" lon="7.4761">
        <ele>2196.75</ele>
        <time>2020-01-30T10:42:44Z</time>
      </trkpt>
      <trkpt lat="44.21105" lon="7.47611">
        <ele>2194.35</ele>
        <time>2020-01-30T10:43:09Z</time>
      </trkpt>
      <trkpt lat="44.21107" lon="7.47608">
        <ele>2192.42</ele>
        <time>2020-01-30T10:43:30Z</time>
      </trkpt>
      <trkpt lat="44.21107" lon="7.47611">
        <ele>2192.42</ele>
        <time>2020-01-30T10:43:48Z</time>
      </trkpt>
      <trkpt lat="44.21105" lon="7.47608">
        <ele>2190.98</ele>
        <time>2020-01-30T10:44:06Z</time>
      </trkpt>
      <trkpt lat="44.21104" lon="7.47608">
        <ele>2189.06</ele>
        <time>2020-01-30T10:44:29Z</time>
      </trkpt>
      <trkpt lat="44.21108" lon="7.47608">
        <ele>2190.02</ele>
        <time>2020-01-30T10:44:50Z</time>
      </trkpt>
      <trkpt lat="44.21105" lon="7.4761">
        <ele>2188.58</ele>
        <time>2020-01-30T10:45:09Z</time>
      </trkpt>
      <trkpt lat="44.21106" lon="7.47609">
        <ele>2188.58</ele>
        <time>2020-01-30T10:45:24Z</time>
      </trkpt>
      <trkpt lat="44.21106" lon="7.47612">
        <ele>2190.5</ele>
        <time>2020-01-30T10:45:42Z</time>
      </trkpt>
      <trkpt lat="44.21108" lon="7.47611">
        <ele>2191.46</ele>
        <time>2020-01-30T10:45:58Z</time>
      </trkpt>
      <trkpt lat="44.21108" lon="7.4761">
        <ele>2192.42</ele>
        <time>2020-01-30T10:46:19Z</time>
      </trkpt>
      <trkpt lat="44.21108" lon="7.4761">
        <ele>2191.94</ele>
        <time>2020-01-30T10:46:39Z</time>
      </trkpt>
      <trkpt lat="44.21107" lon="7.47611">
        <ele>2190.98</ele>
        <time>2020-01-30T10:46:56Z</time>
      </trkpt>
      <trkpt lat="44.21108" lon="7.4761">
        <ele>2190.98</ele>
        <time>2020-01-30T10:47:08Z</time>
      </trkpt>
      <trkpt lat="44.21108" lon="7.47609">
        <ele>2193.39</ele>
        <time>2020-01-30T10:47:24Z</time>
      </trkpt>
      <trkpt lat="44.21112" lon="7.47609">
        <ele>2196.27</ele>
        <time>2020-01-30T10:47:44Z</time>
      </trkpt>
      <trkpt lat="44.2111" lon="7.47609">
        <ele>2197.71</ele>
        <time>2020-01-30T10:48:06Z</time>
      </trkpt>
      <trkpt lat="44.21109" lon="7.47608">
        <ele>2200.11</ele>
        <time>2020-01-30T10:48:20Z</time>
      </trkpt>
      <trkpt lat="44.21108" lon="7.4761">
        <ele>2198.67</ele>
        <time>2020-01-30T10:48:38Z</time>
      </trkpt>
      <trkpt lat="44.21107" lon="7.47612">
        <ele>2197.23</ele>
        <time>2020-01-30T10:48:58Z</time>
      </trkpt>
      <trkpt lat="44.21106" lon="7.47614">
        <ele>2195.31</ele>
        <time>2020-01-30T10:49:08Z</time>
      </trkpt>
      <trkpt lat="44.21106" lon="7.47613">
        <ele>2195.79</ele>
        <time>2020-01-30T10:49:21Z</time>
      </trkpt>
      <trkpt lat="44.21105" lon="7.47611">
        <ele>2196.75</ele>
        <time>2020-01-30T10:49:40Z</time>
      </trkpt>
      <trkpt lat="44.21105" lon="7.47611">
        <ele>2194.35</ele>
        <time>2020-01-30T10:50:00Z</time>
      </trkpt>
      <trkpt lat="44.21103" lon="7.47608">
        <ele>2192.42</ele>
        <time>2020-01-30T10:50:10Z</time>
      </trkpt>
      <trkpt lat="44.21096" lon="7.47607">
        <ele>2188.58</ele>
        <time>2020-01-30T10:50:18Z</time>
      </trkpt>
      <trkpt lat="44.21095" lon="7.47607">
        <ele>2187.14</ele>
        <time>2020-01-30T10:50:22Z</time>
      </trkpt>
      <trkpt lat="44.21094" lon="7.4761">
        <ele>2186.18</ele>
        <time>2020-01-30T10:50:25Z</time>
      </trkpt>
      <trkpt lat="44.21084" lon="7.47617">
        <ele>2181.37</ele>
        <time>2020-01-30T10:50:33Z</time>
      </trkpt>
      <trkpt lat="44.21083" lon="7.47622">
        <ele>2177.52</ele>
        <time>2020-01-30T10:50:37Z</time>
      </trkpt>
      <trkpt lat="44.21069" lon="7.47618">
        <ele>2171.76</ele>
        <time>2020-01-30T10:50:46Z</time>
      </trkpt>
      <trkpt lat="44.2107" lon="7.47621">
        <ele>2171.27</ele>
        <time>2020-01-30T10:50:47Z</time>
      </trkpt>
      <trkpt lat="44.21077" lon="7.47659">
        <ele>2166.47</ele>
        <time>2020-01-30T10:50:56Z</time>
      </trkpt>
      <trkpt lat="44.21075" lon="7.4766">
        <ele>2164.55</ele>
        <time>2020-01-30T10:51:02Z</time>
      </trkpt>
      <trkpt lat="44.2107" lon="7.47677">
        <ele>2161.66</ele>
        <time>2020-01-30T10:51:09Z</time>
      </trkpt>
      <trkpt lat="44.21067" lon="7.47712">
        <ele>2156.86</ele>
        <time>2020-01-30T10:51:20Z</time>
      </trkpt>
      <trkpt lat="44.21067" lon="7.47719">
        <ele>2154.45</ele>
        <time>2020-01-30T10:51:24Z</time>
      </trkpt>
      <trkpt lat="44.2106" lon="7.47728">
        <ele>2148.68</ele>
        <time>2020-01-30T10:51:31Z</time>
      </trkpt>
      <trkpt lat="44.21054" lon="7.47735">
        <ele>2140.51</ele>
        <time>2020-01-30T10:51:38Z</time>
      </trkpt>
      <trkpt lat="44.21053" lon="7.4776">
        <ele>2134.74</ele>
        <time>2020-01-30T10:51:43Z</time>
      </trkpt>
      <trkpt lat="44.21054" lon="7.47837">
        <ele>2124.17</ele>
        <time>2020-01-30T10:51:55Z</time>
      </trkpt>
      <trkpt lat="44.21055" lon="7.47903">
        <ele>2117.44</ele>
        <time>2020-01-30T10:52:07Z</time>
      </trkpt>
      <trkpt lat="44.21055" lon="7.47945">
        <ele>2111.67</ele>
        <time>2020-01-30T10:52:18Z</time>
      </trkpt>
      <trkpt lat="44.21051" lon="7.47963">
        <ele>2109.75</ele>
        <time>2020-01-30T10:52:39Z</time>
      </trkpt>
      <trkpt lat="44.21051" lon="7.47969">
        <ele>2109.27</ele>
        <time>2020-01-30T10:52:42Z</time>
      </trkpt>
      <trkpt lat="44.21043" lon="7.47976">
        <ele>2105.42</ele>
        <time>2020-01-30T10:52:48Z</time>
      </trkpt>
      <trkpt lat="44.21043" lon="7.47977">
        <ele>2104.94</ele>
        <time>2020-01-30T10:52:49Z</time>
      </trkpt>
      <trkpt lat="44.21031" lon="7.47982">
        <ele>2098.21</ele>
        <time>2020-01-30T10:52:56Z</time>
      </trkpt>
      <trkpt lat="44.2103" lon="7.47984">
        <ele>2092.93</ele>
        <time>2020-01-30T10:53:15Z</time>
      </trkpt>
      <trkpt lat="44.21028" lon="7.47989">
        <ele>2093.41</ele>
        <time>2020-01-30T10:53:20Z</time>
      </trkpt>
      <trkpt lat="44.21019" lon="7.47987">
        <ele>2089.56</ele>
        <time>2020-01-30T10:53:27Z</time>
      </trkpt>
      <trkpt lat="44.21018" lon="7.47993">
        <ele>2087.64</ele>
        <time>2020-01-30T10:53:30Z</time>
      </trkpt>
      <trkpt lat="44.2101" lon="7.47989">
        <ele>2084.28</ele>
        <time>2020-01-30T10:53:34Z</time>
      </trkpt>
      <trkpt lat="44.21002" lon="7.47995">
        <ele>2078.03</ele>
        <time>2020-01-30T10:53:40Z</time>
      </trkpt>
      <trkpt lat="44.2099" lon="7.47992">
        <ele>2071.3</ele>
        <time>2020-01-30T10:53:47Z</time>
      </trkpt>
      <trkpt lat="44.20992" lon="7.47999">
        <ele>2073.22</ele>
        <time>2020-01-30T10:54:06Z</time>
      </trkpt>
      <trkpt lat="44.20982" lon="7.48001">
        <ele>2070.34</ele>
        <time>2020-01-30T10:54:13Z</time>
      </trkpt>
      <trkpt lat="44.20981" lon="7.48009">
        <ele>2066.97</ele>
        <time>2020-01-30T10:54:20Z</time>
      </trkpt>
      <trkpt lat="44.20981" lon="7.48009">
        <ele>2066.97</ele>
        <time>2020-01-30T10:54:21Z</time>
      </trkpt>
      <trkpt lat="44.20976" lon="7.4801">
        <ele>2064.09</ele>
        <time>2020-01-30T10:54:25Z</time>
      </trkpt>
      <trkpt lat="44.20963" lon="7.48019">
        <ele>2055.44</ele>
        <time>2020-01-30T10:54:33Z</time>
      </trkpt>
      <trkpt lat="44.20956" lon="7.48008">
        <ele>2052.07</ele>
        <time>2020-01-30T10:54:37Z</time>
      </trkpt>
      <trkpt lat="44.20953" lon="7.48027">
        <ele>2047.75</ele>
        <time>2020-01-30T10:54:41Z</time>
      </trkpt>
      <trkpt lat="44.20936" lon="7.48027">
        <ele>2041.02</ele>
        <time>2020-01-30T10:54:47Z</time>
      </trkpt>
      <trkpt lat="44.20935" lon="7.48036">
        <ele>2039.57</ele>
        <time>2020-01-30T10:54:49Z</time>
      </trkpt>
      <trkpt lat="44.20935" lon="7.4804">
        <ele>2039.09</ele>
        <time>2020-01-30T10:54:50Z</time>
      </trkpt>
      <trkpt lat="44.20928" lon="7.48034">
        <ele>2036.21</ele>
        <time>2020-01-30T10:54:55Z</time>
      </trkpt>
      <trkpt lat="44.20926" lon="7.48026">
        <ele>2034.77</ele>
        <time>2020-01-30T10:54:57Z</time>
      </trkpt>
      <trkpt lat="44.20919" lon="7.48033">
        <ele>2033.33</ele>
        <time>2020-01-30T10:55:01Z</time>
      </trkpt>
      <trkpt lat="44.20918" lon="7.4805">
        <ele>2030.92</ele>
        <time>2020-01-30T10:55:05Z</time>
      </trkpt>
      <trkpt lat="44.20913" lon="7.48051">
        <ele>2027.08</ele>
        <time>2020-01-30T10:55:09Z</time>
      </trkpt>
      <trkpt lat="44.20908" lon="7.48042">
        <ele>2023.23</ele>
        <time>2020-01-30T10:55:17Z</time>
      </trkpt>
      <trkpt lat="44.20908" lon="7.48041">
        <ele>2019.87</ele>
        <time>2020-01-30T10:55:32Z</time>
      </trkpt>
      <trkpt lat="44.20906" lon="7.48037">
        <ele>2012.66</ele>
        <time>2020-01-30T10:56:03Z</time>
      </trkpt>
      <trkpt lat="44.20906" lon="7.48036">
        <ele>2007.85</ele>
        <time>2020-01-30T10:56:31Z</time>
      </trkpt>
      <trkpt lat="44.20906" lon="7.4804">
        <ele>2006.41</ele>
        <time>2020-01-30T10:57:05Z</time>
      </trkpt>
      <trkpt lat="44.20904" lon="7.4804">
        <ele>2009.77</ele>
        <time>2020-01-30T10:57:23Z</time>
      </trkpt>
      <trkpt lat="44.20906" lon="7.48041">
        <ele>2008.33</ele>
        <time>2020-01-30T10:57:43Z</time>
      </trkpt>
      <trkpt lat="44.20906" lon="7.4804">
        <ele>2008.33</ele>
        <time>2020-01-30T10:58:12Z</time>
      </trkpt>
      <trkpt lat="44.20904" lon="7.48042">
        <ele>2008.81</ele>
        <time>2020-01-30T10:58:47Z</time>
      </trkpt>
      <trkpt lat="44.20904" lon="7.4804">
        <ele>2009.29</ele>
        <time>2020-01-30T10:59:23Z</time>
      </trkpt>
      <trkpt lat="44.20902" lon="7.48039">
        <ele>2008.81</ele>
        <time>2020-01-30T10:59:36Z</time>
      </trkpt>
      <trkpt lat="44.20894" lon="7.48046">
        <ele>2004.01</ele>
        <time>2020-01-30T10:59:42Z</time>
      </trkpt>
      <trkpt lat="44.20881" lon="7.48041">
        <ele>1996.8</ele>
        <time>2020-01-30T10:59:48Z</time>
      </trkpt>
      <trkpt lat="44.20877" lon="7.48053">
        <ele>1993.43</ele>
        <time>2020-01-30T10:59:52Z</time>
      </trkpt>
      <trkpt lat="44.20876" lon="7.48055">
        <ele>1992.47</ele>
        <time>2020-01-30T10:59:54Z</time>
      </trkpt>
      <trkpt lat="44.20863" lon="7.48055">
        <ele>1990.55</ele>
        <time>2020-01-30T11:00:00Z</time>
      </trkpt>
      <trkpt lat="44.20859" lon="7.48066">
        <ele>1989.59</ele>
        <time>2020-01-30T11:00:02Z</time>
      </trkpt>
      <trkpt lat="44.20852" lon="7.4807">
        <ele>1988.62</ele>
        <time>2020-01-30T11:00:06Z</time>
      </trkpt>
      <trkpt lat="44.20853" lon="7.48072">
        <ele>1986.22</ele>
        <time>2020-01-30T11:00:19Z</time>
      </trkpt>
      <trkpt lat="44.2085" lon="7.48081">
        <ele>1983.82</ele>
        <time>2020-01-30T11:00:34Z</time>
      </trkpt>
      <trkpt lat="44.20848" lon="7.48095">
        <ele>1981.41</ele>
        <time>2020-01-30T11:00:44Z</time>
      </trkpt>
      <trkpt lat="44.20847" lon="7.48096">
        <ele>1976.61</ele>
        <time>2020-01-30T11:01:13Z</time>
      </trkpt>
      <trkpt lat="44.20845" lon="7.48095">
        <ele>1970.84</ele>
        <time>2020-01-30T11:01:54Z</time>
      </trkpt>
      <trkpt lat="44.20842" lon="7.48095">
        <ele>1965.55</ele>
        <time>2020-01-30T11:02:25Z</time>
      </trkpt>
      <trkpt lat="44.20842" lon="7.48095">
        <ele>1958.82</ele>
        <time>2020-01-30T11:02:48Z</time>
      </trkpt>
      <trkpt lat="44.20844" lon="7.48095">
        <ele>1957.38</ele>
        <time>2020-01-30T11:03:04Z</time>
      </trkpt>
      <trkpt lat="44.20845" lon="7.48094">
        <ele>1954.02</ele>
        <time>2020-01-30T11:03:28Z</time>
      </trkpt>
      <trkpt lat="44.20844" lon="7.48096">
        <ele>1954.98</ele>
        <time>2020-01-30T11:03:38Z</time>
      </trkpt>
      <trkpt lat="44.20841" lon="7.48114">
        <ele>1954.02</ele>
        <time>2020-01-30T11:03:44Z</time>
      </trkpt>
      <trkpt lat="44.20831" lon="7.48122">
        <ele>1946.33</ele>
        <time>2020-01-30T11:03:50Z</time>
      </trkpt>
      <trkpt lat="44.20819" lon="7.48129">
        <ele>1940.08</ele>
        <time>2020-01-30T11:03:56Z</time>
      </trkpt>
      <trkpt lat="44.20811" lon="7.48127">
        <ele>1934.31</ele>
        <time>2020-01-30T11:04:01Z</time>
      </trkpt>
      <trkpt lat="44.20805" lon="7.48134">
        <ele>1925.18</ele>
        <time>2020-01-30T11:04:08Z</time>
      </trkpt>
      <trkpt lat="44.20796" lon="7.48123">
        <ele>1921.33</ele>
        <time>2020-01-30T11:04:14Z</time>
      </trkpt>
      <trkpt lat="44.20794" lon="7.48121">
        <ele>1921.33</ele>
        <time>2020-01-30T11:04:32Z</time>
      </trkpt>
      <trkpt lat="44.20794" lon="7.48121">
        <ele>1923.74</ele>
        <time>2020-01-30T11:04:47Z</time>
      </trkpt>
      <trkpt lat="44.20789" lon="7.48113">
        <ele>1922.77</ele>
        <time>2020-01-30T11:04:51Z</time>
      </trkpt>
      <trkpt lat="44.20787" lon="7.48107">
        <ele>1921.33</ele>
        <time>2020-01-30T11:04:53Z</time>
      </trkpt>
      <trkpt lat="44.20777" lon="7.48114">
        <ele>1916.53</ele>
        <time>2020-01-30T11:04:59Z</time>
      </trkpt>
      <trkpt lat="44.20775" lon="7.48111">
        <ele>1915.56</ele>
        <time>2020-01-30T11:05:00Z</time>
      </trkpt>
      <trkpt lat="44.20771" lon="7.48104">
        <ele>1913.16</ele>
        <time>2020-01-30T11:05:03Z</time>
      </trkpt>
      <trkpt lat="44.20764" lon="7.48118">
        <ele>1908.83</ele>
        <time>2020-01-30T11:05:09Z</time>
      </trkpt>
      <trkpt lat="44.20754" lon="7.48122">
        <ele>1901.63</ele>
        <time>2020-01-30T11:05:14Z</time>
      </trkpt>
      <trkpt lat="44.20742" lon="7.48124">
        <ele>1893.93</ele>
        <time>2020-01-30T11:05:20Z</time>
      </trkpt>
      <trkpt lat="44.20738" lon="7.4813">
        <ele>1892.49</ele>
        <time>2020-01-30T11:05:27Z</time>
      </trkpt>
      <trkpt lat="44.20734" lon="7.48149">
        <ele>1891.05</ele>
        <time>2020-01-30T11:05:43Z</time>
      </trkpt>
      <trkpt lat="44.20731" lon="7.48169">
        <ele>1888.17</ele>
        <time>2020-01-30T11:05:48Z</time>
      </trkpt>
      <trkpt lat="44.20726" lon="7.48168">
        <ele>1884.32</ele>
        <time>2020-01-30T11:05:51Z</time>
      </trkpt>
      <trkpt lat="44.20715" lon="7.48179">
        <ele>1877.11</ele>
        <time>2020-01-30T11:05:56Z</time>
      </trkpt>
      <trkpt lat="44.20702" lon="7.48177">
        <ele>1867.02</ele>
        <time>2020-01-30T11:06:02Z</time>
      </trkpt>
      <trkpt lat="44.20691" lon="7.48178">
        <ele>1859.33</ele>
        <time>2020-01-30T11:06:07Z</time>
      </trkpt>
      <trkpt lat="44.20681" lon="7.48187">
        <ele>1852.6</ele>
        <time>2020-01-30T11:06:12Z</time>
      </trkpt>
      <trkpt lat="44.20679" lon="7.4818">
        <ele>1849.23</ele>
        <time>2020-01-30T11:06:15Z</time>
      </trkpt>
      <trkpt lat="44.20676" lon="7.4818">
        <ele>1846.83</ele>
        <time>2020-01-30T11:06:27Z</time>
      </trkpt>
      <trkpt lat="44.20676" lon="7.48179">
        <ele>1845.39</ele>
        <time>2020-01-30T11:06:36Z</time>
      </trkpt>
      <trkpt lat="44.20668" lon="7.48189">
        <ele>1844.91</ele>
        <time>2020-01-30T11:06:41Z</time>
      </trkpt>
      <trkpt lat="44.20667" lon="7.48197">
        <ele>1844.91</ele>
        <time>2020-01-30T11:06:44Z</time>
      </trkpt>
      <trkpt lat="44.20654" lon="7.482">
        <ele>1842.98</ele>
        <time>2020-01-30T11:06:49Z</time>
      </trkpt>
      <trkpt lat="44.20651" lon="7.48208">
        <ele>1843.47</ele>
        <time>2020-01-30T11:06:52Z</time>
      </trkpt>
      <trkpt lat="44.20644" lon="7.48202">
        <ele>1843.95</ele>
        <time>2020-01-30T11:06:56Z</time>
      </trkpt>
      <trkpt lat="44.20643" lon="7.482">
        <ele>1843.95</ele>
        <time>2020-01-30T11:06:57Z</time>
      </trkpt>
      <trkpt lat="44.2064" lon="7.48203">
        <ele>1843.95</ele>
        <time>2020-01-30T11:06:59Z</time>
      </trkpt>
      <trkpt lat="44.20633" lon="7.48202">
        <ele>1840.58</ele>
        <time>2020-01-30T11:07:03Z</time>
      </trkpt>
      <trkpt lat="44.20629" lon="7.48214">
        <ele>1840.58</ele>
        <time>2020-01-30T11:07:06Z</time>
      </trkpt>
      <trkpt lat="44.2062" lon="7.48214">
        <ele>1834.81</ele>
        <time>2020-01-30T11:07:11Z</time>
      </trkpt>
      <trkpt lat="44.20618" lon="7.48213">
        <ele>1832.89</ele>
        <time>2020-01-30T11:07:26Z</time>
      </trkpt>
      <trkpt lat="44.20619" lon="7.48217">
        <ele>1832.41</ele>
        <time>2020-01-30T11:07:34Z</time>
      </trkpt>
      <trkpt lat="44.20616" lon="7.48222">
        <ele>1826.64</ele>
        <time>2020-01-30T11:07:43Z</time>
      </trkpt>
      <trkpt lat="44.20614" lon="7.4822">
        <ele>1815.59</ele>
        <time>2020-01-30T11:08:03Z</time>
      </trkpt>
      <trkpt lat="44.20613" lon="7.48219">
        <ele>1812.22</ele>
        <time>2020-01-30T11:08:28Z</time>
      </trkpt>
      <trkpt lat="44.20614" lon="7.4822">
        <ele>1814.15</ele>
        <time>2020-01-30T11:08:54Z</time>
      </trkpt>
      <trkpt lat="44.20612" lon="7.48226">
        <ele>1812.7</ele>
        <time>2020-01-30T11:08:58Z</time>
      </trkpt>
      <trkpt lat="44.20609" lon="7.48245">
        <ele>1812.7</ele>
        <time>2020-01-30T11:09:02Z</time>
      </trkpt>
      <trkpt lat="44.20596" lon="7.48246">
        <ele>1808.86</ele>
        <time>2020-01-30T11:09:08Z</time>
      </trkpt>
      <trkpt lat="44.20583" lon="7.48242">
        <ele>1806.45</ele>
        <time>2020-01-30T11:09:13Z</time>
      </trkpt>
      <trkpt lat="44.20574" lon="7.48267">
        <ele>1805.01</ele>
        <time>2020-01-30T11:09:18Z</time>
      </trkpt>
      <trkpt lat="44.20569" lon="7.48265">
        <ele>1802.13</ele>
        <time>2020-01-30T11:09:21Z</time>
      </trkpt>
      <trkpt lat="44.20551" lon="7.48266">
        <ele>1792.03</ele>
        <time>2020-01-30T11:09:27Z</time>
      </trkpt>
      <trkpt lat="44.20542" lon="7.48267">
        <ele>1790.11</ele>
        <time>2020-01-30T11:09:34Z</time>
      </trkpt>
      <trkpt lat="44.20542" lon="7.48273">
        <ele>1787.71</ele>
        <time>2020-01-30T11:09:41Z</time>
      </trkpt>
      <trkpt lat="44.2053" lon="7.48275">
        <ele>1780.02</ele>
        <time>2020-01-30T11:09:46Z</time>
      </trkpt>
      <trkpt lat="44.20516" lon="7.48281">
        <ele>1773.77</ele>
        <time>2020-01-30T11:09:53Z</time>
      </trkpt>
      <trkpt lat="44.20511" lon="7.48283">
        <ele>1773.77</ele>
        <time>2020-01-30T11:09:54Z</time>
      </trkpt>
      <trkpt lat="44.2049" lon="7.48289">
        <ele>1769.92</ele>
        <time>2020-01-30T11:10:00Z</time>
      </trkpt>
      <trkpt lat="44.20489" lon="7.48291">
        <ele>1769.44</ele>
        <time>2020-01-30T11:10:01Z</time>
      </trkpt>
      <trkpt lat="44.20493" lon="7.48291">
        <ele>1769.92</ele>
        <time>2020-01-30T11:10:11Z</time>
      </trkpt>
      <trkpt lat="44.20503" lon="7.48299">
        <ele>1768.48</ele>
        <time>2020-01-30T11:10:35Z</time>
      </trkpt>
      <trkpt lat="44.20499" lon="7.48299">
        <ele>1764.64</ele>
        <time>2020-01-30T11:10:47Z</time>
      </trkpt>
      <trkpt lat="44.20486" lon="7.48312">
        <ele>1759.83</ele>
        <time>2020-01-30T11:10:53Z</time>
      </trkpt>
      <trkpt lat="44.20482" lon="7.48293">
        <ele>1751.18</ele>
        <time>2020-01-30T11:11:00Z</time>
      </trkpt>
      <trkpt lat="44.20492" lon="7.48317">
        <ele>1750.22</ele>
        <time>2020-01-30T11:11:05Z</time>
      </trkpt>
      <trkpt lat="44.20493" lon="7.48322">
        <ele>1749.26</ele>
        <time>2020-01-30T11:11:06Z</time>
      </trkpt>
      <trkpt lat="44.20494" lon="7.48321">
        <ele>1748.78</ele>
        <time>2020-01-30T11:11:07Z</time>
      </trkpt>
      <trkpt lat="44.20498" lon="7.48317">
        <ele>1747.81</ele>
        <time>2020-01-30T11:11:09Z</time>
      </trkpt>
      <trkpt lat="44.2051" lon="7.48319">
        <ele>1746.85</ele>
        <time>2020-01-30T11:11:18Z</time>
      </trkpt>
      <trkpt lat="44.20455" lon="7.48316">
        <ele>1739.64</ele>
        <time>2020-01-30T11:11:47Z</time>
      </trkpt>
      <trkpt lat="44.20443" lon="7.48324">
        <ele>1732.43</ele>
        <time>2020-01-30T11:12:05Z</time>
      </trkpt>
      <trkpt lat="44.20445" lon="7.48322">
        <ele>1731.95</ele>
        <time>2020-01-30T11:12:28Z</time>
      </trkpt>
      <trkpt lat="44.20443" lon="7.48322">
        <ele>1730.99</ele>
        <time>2020-01-30T11:12:30Z</time>
      </trkpt>
      <trkpt lat="44.20441" lon="7.48333">
        <ele>1728.59</ele>
        <time>2020-01-30T11:12:35Z</time>
      </trkpt>
      <trkpt lat="44.20427" lon="7.4834">
        <ele>1721.86</ele>
        <time>2020-01-30T11:12:41Z</time>
      </trkpt>
      <trkpt lat="44.20413" lon="7.48347">
        <ele>1718.49</ele>
        <time>2020-01-30T11:12:45Z</time>
      </trkpt>
      <trkpt lat="44.20392" lon="7.48353">
        <ele>1718.01</ele>
        <time>2020-01-30T11:12:51Z</time>
      </trkpt>
      <trkpt lat="44.20379" lon="7.48364">
        <ele>1706</ele>
        <time>2020-01-30T11:12:57Z</time>
      </trkpt>
      <trkpt lat="44.20366" lon="7.48365">
        <ele>1703.59</ele>
        <time>2020-01-30T11:13:01Z</time>
      </trkpt>
      <trkpt lat="44.20362" lon="7.48361">
        <ele>1703.59</ele>
        <time>2020-01-30T11:13:03Z</time>
      </trkpt>
      <trkpt lat="44.20355" lon="7.48366">
        <ele>1703.59</ele>
        <time>2020-01-30T11:13:05Z</time>
      </trkpt>
      <trkpt lat="44.20353" lon="7.48373">
        <ele>1703.11</ele>
        <time>2020-01-30T11:13:07Z</time>
      </trkpt>
      <trkpt lat="44.20359" lon="7.4839">
        <ele>1685.81</ele>
        <time>2020-01-30T11:13:18Z</time>
      </trkpt>
      <trkpt lat="44.2036" lon="7.48385">
        <ele>1675.72</ele>
        <time>2020-01-30T11:13:42Z</time>
      </trkpt>
      <trkpt lat="44.20361" lon="7.48382">
        <ele>1668.02</ele>
        <time>2020-01-30T11:14:09Z</time>
      </trkpt>
      <trkpt lat="44.20358" lon="7.48385">
        <ele>1666.1</ele>
        <time>2020-01-30T11:14:32Z</time>
      </trkpt>
      <trkpt lat="44.20357" lon="7.48384">
        <ele>1667.54</ele>
        <time>2020-01-30T11:14:53Z</time>
      </trkpt>
      <trkpt lat="44.20353" lon="7.48379">
        <ele>1666.58</ele>
        <time>2020-01-30T11:14:56Z</time>
      </trkpt>
      <trkpt lat="44.20338" lon="7.48383">
        <ele>1664.18</ele>
        <time>2020-01-30T11:15:02Z</time>
      </trkpt>
      <trkpt lat="44.20325" lon="7.48388">
        <ele>1660.33</ele>
        <time>2020-01-30T11:15:07Z</time>
      </trkpt>
      <trkpt lat="44.20311" lon="7.48389">
        <ele>1653.6</ele>
        <time>2020-01-30T11:15:12Z</time>
      </trkpt>
      <trkpt lat="44.20295" lon="7.48395">
        <ele>1646.88</ele>
        <time>2020-01-30T11:15:17Z</time>
      </trkpt>
      <trkpt lat="44.20289" lon="7.48391">
        <ele>1644.47</ele>
        <time>2020-01-30T11:15:19Z</time>
      </trkpt>
      <trkpt lat="44.20285" lon="7.48392">
        <ele>1643.99</ele>
        <time>2020-01-30T11:15:20Z</time>
      </trkpt>
      <trkpt lat="44.20273" lon="7.48394">
        <ele>1640.15</ele>
        <time>2020-01-30T11:15:25Z</time>
      </trkpt>
      <trkpt lat="44.20264" lon="7.48383">
        <ele>1638.22</ele>
        <time>2020-01-30T11:15:29Z</time>
      </trkpt>
      <trkpt lat="44.20261" lon="7.48384">
        <ele>1634.86</ele>
        <time>2020-01-30T11:15:45Z</time>
      </trkpt>
      <trkpt lat="44.2026" lon="7.48385">
        <ele>1632.94</ele>
        <time>2020-01-30T11:15:50Z</time>
      </trkpt>
      <trkpt lat="44.20256" lon="7.48383">
        <ele>1631.98</ele>
        <time>2020-01-30T11:15:53Z</time>
      </trkpt>
      <trkpt lat="44.20251" lon="7.48391">
        <ele>1630.53</ele>
        <time>2020-01-30T11:15:56Z</time>
      </trkpt>
      <trkpt lat="44.20236" lon="7.48408">
        <ele>1625.25</ele>
        <time>2020-01-30T11:16:02Z</time>
      </trkpt>
      <trkpt lat="44.20226" lon="7.4842">
        <ele>1619.96</ele>
        <time>2020-01-30T11:16:07Z</time>
      </trkpt>
      <trkpt lat="44.20216" lon="7.48428">
        <ele>1613.23</ele>
        <time>2020-01-30T11:16:12Z</time>
      </trkpt>
      <trkpt lat="44.20205" lon="7.48446">
        <ele>1605.54</ele>
        <time>2020-01-30T11:16:17Z</time>
      </trkpt>
      <trkpt lat="44.20193" lon="7.48461">
        <ele>1596.41</ele>
        <time>2020-01-30T11:16:22Z</time>
      </trkpt>
      <trkpt lat="44.20184" lon="7.48472">
        <ele>1589.68</ele>
        <time>2020-01-30T11:16:26Z</time>
      </trkpt>
      <trkpt lat="44.20182" lon="7.48474">
        <ele>1586.79</ele>
        <time>2020-01-30T11:16:28Z</time>
      </trkpt>
      <trkpt lat="44.20178" lon="7.48474">
        <ele>1577.66</ele>
        <time>2020-01-30T11:16:46Z</time>
      </trkpt>
      <trkpt lat="44.20176" lon="7.4847">
        <ele>1574.78</ele>
        <time>2020-01-30T11:17:12Z</time>
      </trkpt>
      <trkpt lat="44.20166" lon="7.48482">
        <ele>1572.85</ele>
        <time>2020-01-30T11:17:18Z</time>
      </trkpt>
      <trkpt lat="44.20155" lon="7.48498">
        <ele>1568.05</ele>
        <time>2020-01-30T11:17:24Z</time>
      </trkpt>
      <trkpt lat="44.20144" lon="7.48509">
        <ele>1563.72</ele>
        <time>2020-01-30T11:17:29Z</time>
      </trkpt>
      <trkpt lat="44.20141" lon="7.48511">
        <ele>1559.4</ele>
        <time>2020-01-30T11:17:41Z</time>
      </trkpt>
      <trkpt lat="44.20139" lon="7.4851">
        <ele>1558.43</ele>
        <time>2020-01-30T11:17:43Z</time>
      </trkpt>
      <trkpt lat="44.20104" lon="7.4851">
        <ele>1549.78</ele>
        <time>2020-01-30T11:17:54Z</time>
      </trkpt>
      <trkpt lat="44.20085" lon="7.48515">
        <ele>1543.53</ele>
        <time>2020-01-30T11:18:03Z</time>
      </trkpt>
      <trkpt lat="44.20083" lon="7.48514">
        <ele>1540.17</ele>
        <time>2020-01-30T11:18:06Z</time>
      </trkpt>
      <trkpt lat="44.20078" lon="7.48514">
        <ele>1540.17</ele>
        <time>2020-01-30T11:18:13Z</time>
      </trkpt>
      <trkpt lat="44.2008" lon="7.48522">
        <ele>1541.61</ele>
        <time>2020-01-30T11:18:20Z</time>
      </trkpt>
      <trkpt lat="44.20074" lon="7.48527">
        <ele>1540.65</ele>
        <time>2020-01-30T11:18:25Z</time>
      </trkpt>
      <trkpt lat="44.20072" lon="7.48528">
        <ele>1539.69</ele>
        <time>2020-01-30T11:18:28Z</time>
      </trkpt>
      <trkpt lat="44.20075" lon="7.48538">
        <ele>1540.17</ele>
        <time>2020-01-30T11:18:32Z</time>
      </trkpt>
      <trkpt lat="44.20079" lon="7.48545">
        <ele>1540.65</ele>
        <time>2020-01-30T11:18:34Z</time>
      </trkpt>
      <trkpt lat="44.20085" lon="7.48564">
        <ele>1541.61</ele>
        <time>2020-01-30T11:18:38Z</time>
      </trkpt>
      <trkpt lat="44.20079" lon="7.48574">
        <ele>1539.69</ele>
        <time>2020-01-30T11:18:49Z</time>
      </trkpt>
      <trkpt lat="44.20079" lon="7.48577">
        <ele>1539.69</ele>
        <time>2020-01-30T11:19:02Z</time>
      </trkpt>
      <trkpt lat="44.20078" lon="7.48578">
        <ele>1539.21</ele>
        <time>2020-01-30T11:19:08Z</time>
      </trkpt>
      <trkpt lat="44.20079" lon="7.48579">
        <ele>1537.77</ele>
        <time>2020-01-30T11:19:17Z</time>
      </trkpt>
      <trkpt lat="44.2008" lon="7.48578">
        <ele>1537.77</ele>
        <time>2020-01-30T11:19:32Z</time>
      </trkpt>
      <trkpt lat="44.20082" lon="7.48582">
        <ele>1540.65</ele>
        <time>2020-01-30T11:20:04Z</time>
      </trkpt>
      <trkpt lat="44.20079" lon="7.48572">
        <ele>1544.01</ele>
        <time>2020-01-30T11:20:38Z</time>
      </trkpt>
      <trkpt lat="44.20081" lon="7.48574">
        <ele>1546.42</ele>
        <time>2020-01-30T11:21:03Z</time>
      </trkpt>
      <trkpt lat="44.20082" lon="7.48577">
        <ele>1547.86</ele>
        <time>2020-01-30T11:21:21Z</time>
      </trkpt>
      <trkpt lat="44.20081" lon="7.48578">
        <ele>1548.34</ele>
        <time>2020-01-30T11:21:37Z</time>
      </trkpt>
      <trkpt lat="44.20082" lon="7.48578">
        <ele>1548.82</ele>
        <time>2020-01-30T11:21:38Z</time>
      </trkpt>
      <trkpt lat="44.20087" lon="7.48593">
        <ele>1551.71</ele>
        <time>2020-01-30T11:21:51Z</time>
      </trkpt>
      <trkpt lat="44.20087" lon="7.48598">
        <ele>1552.19</ele>
        <time>2020-01-30T11:21:53Z</time>
      </trkpt>
      <trkpt lat="44.2009" lon="7.48607">
        <ele>1552.67</ele>
        <time>2020-01-30T11:21:55Z</time>
      </trkpt>
      <trkpt lat="44.20094" lon="7.4864">
        <ele>1554.11</ele>
        <time>2020-01-30T11:22:04Z</time>
      </trkpt>
      <trkpt lat="44.20095" lon="7.48658">
        <ele>1554.11</ele>
        <time>2020-01-30T11:22:07Z</time>
      </trkpt>
      <trkpt lat="44.20091" lon="7.48666">
        <ele>1553.63</ele>
        <time>2020-01-30T11:22:10Z</time>
      </trkpt>
      <trkpt lat="44.20093" lon="7.48694">
        <ele>1554.59</ele>
        <time>2020-01-30T11:22:15Z</time>
      </trkpt>
      <trkpt lat="44.20083" lon="7.48713">
        <ele>1551.71</ele>
        <time>2020-01-30T11:22:22Z</time>
      </trkpt>
      <trkpt lat="44.20079" lon="7.48718">
        <ele>1548.34</ele>
        <time>2020-01-30T11:22:32Z</time>
      </trkpt>
      <trkpt lat="44.20074" lon="7.48725">
        <ele>1546.42</ele>
        <time>2020-01-30T11:22:36Z</time>
      </trkpt>
      <trkpt lat="44.20069" lon="7.48731">
        <ele>1540.65</ele>
        <time>2020-01-30T11:22:47Z</time>
      </trkpt>
      <trkpt lat="44.20067" lon="7.48738">
        <ele>1538.25</ele>
        <time>2020-01-30T11:22:55Z</time>
      </trkpt>
      <trkpt lat="44.20066" lon="7.4874">
        <ele>1537.77</ele>
        <time>2020-01-30T11:23:00Z</time>
      </trkpt>
      <trkpt lat="44.20066" lon="7.48744">
        <ele>1537.29</ele>
        <time>2020-01-30T11:23:03Z</time>
      </trkpt>
      <trkpt lat="44.20063" lon="7.48751">
        <ele>1533.92</ele>
        <time>2020-01-30T11:23:11Z</time>
      </trkpt>
      <trkpt lat="44.20076" lon="7.48754">
        <ele>1530.08</ele>
        <time>2020-01-30T11:23:16Z</time>
      </trkpt>
      <trkpt lat="44.20098" lon="7.48751">
        <ele>1525.27</ele>
        <time>2020-01-30T11:23:23Z</time>
      </trkpt>
      <trkpt lat="44.201" lon="7.48768">
        <ele>1519.02</ele>
        <time>2020-01-30T11:23:29Z</time>
      </trkpt>
      <trkpt lat="44.201" lon="7.4878">
        <ele>1513.25</ele>
        <time>2020-01-30T11:23:33Z</time>
      </trkpt>
      <trkpt lat="44.20081" lon="7.48801">
        <ele>1505.56</ele>
        <time>2020-01-30T11:23:39Z</time>
      </trkpt>
      <trkpt lat="44.2007" lon="7.48813">
        <ele>1502.2</ele>
        <time>2020-01-30T11:23:43Z</time>
      </trkpt>
      <trkpt lat="44.20068" lon="7.48826">
        <ele>1500.76</ele>
        <time>2020-01-30T11:23:47Z</time>
      </trkpt>
      <trkpt lat="44.20077" lon="7.48842">
        <ele>1500.27</ele>
        <time>2020-01-30T11:23:51Z</time>
      </trkpt>
      <trkpt lat="44.20082" lon="7.48862">
        <ele>1500.27</ele>
        <time>2020-01-30T11:23:55Z</time>
      </trkpt>
      <trkpt lat="44.20055" lon="7.48897">
        <ele>1501.24</ele>
        <time>2020-01-30T11:24:00Z</time>
      </trkpt>
      <trkpt lat="44.20052" lon="7.48909">
        <ele>1501.24</ele>
        <time>2020-01-30T11:24:01Z</time>
      </trkpt>
      <trkpt lat="44.20038" lon="7.48966">
        <ele>1502.68</ele>
        <time>2020-01-30T11:24:09Z</time>
      </trkpt>
      <trkpt lat="44.20046" lon="7.48974">
        <ele>1500.76</ele>
        <time>2020-01-30T11:24:13Z</time>
      </trkpt>
      <trkpt lat="44.20055" lon="7.48963">
        <ele>1499.79</ele>
        <time>2020-01-30T11:24:16Z</time>
      </trkpt>
      <trkpt lat="44.20064" lon="7.48948">
        <ele>1495.95</ele>
        <time>2020-01-30T11:24:25Z</time>
      </trkpt>
      <trkpt lat="44.20067" lon="7.48948">
        <ele>1488.26</ele>
        <time>2020-01-30T11:24:48Z</time>
      </trkpt>
      <trkpt lat="44.20066" lon="7.48948">
        <ele>1486.82</ele>
        <time>2020-01-30T11:24:53Z</time>
      </trkpt>
      <trkpt lat="44.20071" lon="7.48964">
        <ele>1485.37</ele>
        <time>2020-01-30T11:25:00Z</time>
      </trkpt>
      <trkpt lat="44.20058" lon="7.48994">
        <ele>1483.45</ele>
        <time>2020-01-30T11:25:06Z</time>
      </trkpt>
      <trkpt lat="44.20065" lon="7.49029">
        <ele>1481.05</ele>
        <time>2020-01-30T11:25:13Z</time>
      </trkpt>
      <trkpt lat="44.2006" lon="7.4905">
        <ele>1476.24</ele>
        <time>2020-01-30T11:25:18Z</time>
      </trkpt>
      <trkpt lat="44.2006" lon="7.49052">
        <ele>1469.51</ele>
        <time>2020-01-30T11:25:29Z</time>
      </trkpt>
      <trkpt lat="44.20051" lon="7.49072">
        <ele>1466.63</ele>
        <time>2020-01-30T11:25:35Z</time>
      </trkpt>
      <trkpt lat="44.20042" lon="7.49077">
        <ele>1463.74</ele>
        <time>2020-01-30T11:25:38Z</time>
      </trkpt>
      <trkpt lat="44.20032" lon="7.49088">
        <ele>1461.34</ele>
        <time>2020-01-30T11:25:41Z</time>
      </trkpt>
      <trkpt lat="44.20011" lon="7.49112">
        <ele>1456.05</ele>
        <time>2020-01-30T11:25:49Z</time>
      </trkpt>
      <trkpt lat="44.19998" lon="7.49123">
        <ele>1453.65</ele>
        <time>2020-01-30T11:25:53Z</time>
      </trkpt>
      <trkpt lat="44.20014" lon="7.49139">
        <ele>1451.25</ele>
        <time>2020-01-30T11:25:59Z</time>
      </trkpt>
      <trkpt lat="44.20018" lon="7.49146">
        <ele>1450.77</ele>
        <time>2020-01-30T11:26:02Z</time>
      </trkpt>
      <trkpt lat="44.20011" lon="7.49154">
        <ele>1451.25</ele>
        <time>2020-01-30T11:26:04Z</time>
      </trkpt>
      <trkpt lat="44.19999" lon="7.49165">
        <ele>1450.77</ele>
        <time>2020-01-30T11:26:12Z</time>
      </trkpt>
      <trkpt lat="44.2" lon="7.49166">
        <ele>1449.81</ele>
        <time>2020-01-30T11:26:17Z</time>
      </trkpt>
      <trkpt lat="44.20002" lon="7.49168">
        <ele>1448.84</ele>
        <time>2020-01-30T11:26:19Z</time>
      </trkpt>
      <trkpt lat="44.19998" lon="7.49182">
        <ele>1446.44</ele>
        <time>2020-01-30T11:26:25Z</time>
      </trkpt>
      <trkpt lat="44.20013" lon="7.49188">
        <ele>1444.04</ele>
        <time>2020-01-30T11:26:30Z</time>
      </trkpt>
      <trkpt lat="44.20013" lon="7.49196">
        <ele>1443.56</ele>
        <time>2020-01-30T11:26:33Z</time>
      </trkpt>
      <trkpt lat="44.20028" lon="7.49213">
        <ele>1439.71</ele>
        <time>2020-01-30T11:26:38Z</time>
      </trkpt>
      <trkpt lat="44.20027" lon="7.49226">
        <ele>1438.75</ele>
        <time>2020-01-30T11:26:41Z</time>
      </trkpt>
      <trkpt lat="44.20013" lon="7.49236">
        <ele>1434.91</ele>
        <time>2020-01-30T11:26:50Z</time>
      </trkpt>
      <trkpt lat="44.20012" lon="7.49236">
        <ele>1434.91</ele>
        <time>2020-01-30T11:26:51Z</time>
      </trkpt>
      <trkpt lat="44.20008" lon="7.49244">
        <ele>1433.94</ele>
        <time>2020-01-30T11:26:59Z</time>
      </trkpt>
      <trkpt lat="44.20003" lon="7.49247">
        <ele>1430.58</ele>
        <time>2020-01-30T11:27:11Z</time>
      </trkpt>
      <trkpt lat="44.19993" lon="7.49255">
        <ele>1428.66</ele>
        <time>2020-01-30T11:27:15Z</time>
      </trkpt>
      <trkpt lat="44.19971" lon="7.49269">
        <ele>1426.25</ele>
        <time>2020-01-30T11:27:21Z</time>
      </trkpt>
      <trkpt lat="44.19969" lon="7.4928">
        <ele>1417.6</ele>
        <time>2020-01-30T11:27:33Z</time>
      </trkpt>
      <trkpt lat="44.19972" lon="7.49277">
        <ele>1416.64</ele>
        <time>2020-01-30T11:27:46Z</time>
      </trkpt>
      <trkpt lat="44.19973" lon="7.49281">
        <ele>1415.2</ele>
        <time>2020-01-30T11:27:49Z</time>
      </trkpt>
      <trkpt lat="44.19976" lon="7.49285">
        <ele>1415.2</ele>
        <time>2020-01-30T11:27:52Z</time>
      </trkpt>
      <trkpt lat="44.19978" lon="7.49305">
        <ele>1413.76</ele>
        <time>2020-01-30T11:27:58Z</time>
      </trkpt>
      <trkpt lat="44.19969" lon="7.49317">
        <ele>1413.76</ele>
        <time>2020-01-30T11:28:01Z</time>
      </trkpt>
      <trkpt lat="44.19962" lon="7.49336">
        <ele>1413.28</ele>
        <time>2020-01-30T11:28:04Z</time>
      </trkpt>
      <trkpt lat="44.19949" lon="7.4936">
        <ele>1411.35</ele>
        <time>2020-01-30T11:28:09Z</time>
      </trkpt>
      <trkpt lat="44.1994" lon="7.49388">
        <ele>1410.87</ele>
        <time>2020-01-30T11:28:13Z</time>
      </trkpt>
      <trkpt lat="44.19933" lon="7.49416">
        <ele>1410.87</ele>
        <time>2020-01-30T11:28:17Z</time>
      </trkpt>
      <trkpt lat="44.19925" lon="7.49428">
        <ele>1411.35</ele>
        <time>2020-01-30T11:28:19Z</time>
      </trkpt>
      <trkpt lat="44.19921" lon="7.49467">
        <ele>1411.35</ele>
        <time>2020-01-30T11:28:24Z</time>
      </trkpt>
      <trkpt lat="44.19902" lon="7.49493">
        <ele>1409.91</ele>
        <time>2020-01-30T11:28:29Z</time>
      </trkpt>
      <trkpt lat="44.19878" lon="7.49538">
        <ele>1406.55</ele>
        <time>2020-01-30T11:28:39Z</time>
      </trkpt>
      <trkpt lat="44.19862" lon="7.49564">
        <ele>1404.62</ele>
        <time>2020-01-30T11:28:49Z</time>
      </trkpt>
      <trkpt lat="44.19856" lon="7.49582">
        <ele>1397.41</ele>
        <time>2020-01-30T11:29:00Z</time>
      </trkpt>
      <trkpt lat="44.19855" lon="7.49586">
        <ele>1394.05</ele>
        <time>2020-01-30T11:29:10Z</time>
      </trkpt>
      <trkpt lat="44.19859" lon="7.49583">
        <ele>1383.47</ele>
        <time>2020-01-30T11:29:30Z</time>
      </trkpt>
      <trkpt lat="44.19859" lon="7.49583">
        <ele>1380.11</ele>
        <time>2020-01-30T11:29:49Z</time>
      </trkpt>
      <trkpt lat="44.19848" lon="7.49594">
        <ele>1377.23</ele>
        <time>2020-01-30T11:30:01Z</time>
      </trkpt>
      <trkpt lat="44.19839" lon="7.496">
        <ele>1377.71</ele>
        <time>2020-01-30T11:30:17Z</time>
      </trkpt>
      <trkpt lat="44.19836" lon="7.49601">
        <ele>1379.63</ele>
        <time>2020-01-30T11:30:35Z</time>
      </trkpt>
      <trkpt lat="44.19832" lon="7.49598">
        <ele>1382.03</ele>
        <time>2020-01-30T11:30:49Z</time>
      </trkpt>
      <trkpt lat="44.19834" lon="7.49599">
        <ele>1380.59</ele>
        <time>2020-01-30T11:30:59Z</time>
      </trkpt>
      <trkpt lat="44.19835" lon="7.49599">
        <ele>1375.3</ele>
        <time>2020-01-30T11:31:13Z</time>
      </trkpt>
      <trkpt lat="44.19838" lon="7.496">
        <ele>1377.23</ele>
        <time>2020-01-30T11:31:49Z</time>
      </trkpt>
      <trkpt lat="44.19842" lon="7.49607">
        <ele>1375.3</ele>
        <time>2020-01-30T11:32:20Z</time>
      </trkpt>
      <trkpt lat="44.19837" lon="7.49607">
        <ele>1372.42</ele>
        <time>2020-01-30T11:32:57Z</time>
      </trkpt>
      <trkpt lat="44.19836" lon="7.49601">
        <ele>1382.03</ele>
        <time>2020-01-30T11:33:37Z</time>
      </trkpt>
      <trkpt lat="44.19836" lon="7.496">
        <ele>1385.88</ele>
        <time>2020-01-30T11:34:11Z</time>
      </trkpt>
      <trkpt lat="44.19842" lon="7.49599">
        <ele>1385.88</ele>
        <time>2020-01-30T11:34:48Z</time>
      </trkpt>
      <trkpt lat="44.19833" lon="7.49599">
        <ele>1382.03</ele>
        <time>2020-01-30T11:35:27Z</time>
      </trkpt>
      <trkpt lat="44.19831" lon="7.49598">
        <ele>1381.55</ele>
        <time>2020-01-30T11:36:02Z</time>
      </trkpt>
      <trkpt lat="44.19831" lon="7.49605">
        <ele>1381.07</ele>
        <time>2020-01-30T11:36:30Z</time>
      </trkpt>
      <trkpt lat="44.19833" lon="7.49598">
        <ele>1383.47</ele>
        <time>2020-01-30T11:36:45Z</time>
      </trkpt>
    </trkseg>
  </trk>
</gpx>